<?xml version="1.0" encoding="utf-8"?>
<gpx version="1.1" creator="Guru Maps/6.2.0" xmlns:xsi="http://www.w3.org/2001/XMLSchema-instance" xmlns="http://www.topografix.com/GPX/1/1" xmlns:gom="https://gurumaps.app/gpx/v3" xsi:schemaLocation="http://www.topografix.com/GPX/1/1 http://www.topografix.com/GPX/1/1/gpx.xsd https://gurumaps.app/gpx/v3 https://gurumaps.app/gpx/v3/schema.xsd">
 <trk>
  <type>TrackStyle_2196F3C8</type>
  <extensions>
   <gom:time>2026-08-13T21:04:30.892Z</gom:time>
   <line xmlns="http://www.topografix.com/GPX/gpx_style/0/2">
    <color>2196F3</color>
   </line>
  </extensions>
  <trkseg>
   <trkpt lat="59.3492625861" lon="34.6879457437"><ele>167.704</ele><time>2026-08-13T21:04:30.650Z</time><hdop>3.0</hdop><vdop>3.812</vdop><extensions><gom:speed>0.192</gom:speed></extensions></trkpt>
   <trkpt lat="59.3492491751" lon="34.6877564803"><ele>165.473</ele><time>2026-08-13T21:05:52.999Z</time><hdop>4.687</hdop><vdop>3.0</vdop><extensions><gom:speed>0.863</gom:speed><gom:course>277.474</gom:course></extensions></trkpt>
   <trkpt lat="59.3492369794" lon="34.6875768561"><ele>167.889</ele><time>2026-08-13T21:06:01.999Z</time><hdop>4.687</hdop><vdop>4.625</vdop><extensions><gom:speed>0.709</gom:speed><gom:course>272.338</gom:course></extensions></trkpt>
   <trkpt lat="59.3492394102" lon="34.68738885"><ele>168.688</ele><time>2026-08-13T21:06:12.999Z</time><hdop>4.687</hdop><vdop>4.562</vdop><extensions><gom:speed>1.061</gom:speed><gom:course>266.356</gom:course></extensions></trkpt>
   <trkpt lat="59.3492241132" lon="34.6872052025"><ele>168.347</ele><time>2026-08-13T21:06:22.999Z</time><hdop>4.687</hdop><vdop>4.875</vdop><extensions><gom:speed>0.738</gom:speed><gom:course>287.884</gom:course></extensions></trkpt>
   <trkpt lat="59.3492453194" lon="34.6870243211"><ele>167.203</ele><time>2026-08-13T21:06:31.999Z</time><hdop>4.687</hdop><vdop>4.562</vdop><extensions><gom:speed>0.501</gom:speed><gom:course>293.586</gom:course></extensions></trkpt>
   <trkpt lat="59.3492355126" lon="34.6868434396"><ele>166.575</ele><time>2026-08-13T21:06:40.999Z</time><hdop>4.687</hdop><vdop>3.812</vdop><extensions><gom:speed>0.793</gom:speed><gom:course>286.093</gom:course></extensions></trkpt>
   <trkpt lat="59.3492285556" lon="34.6866509911"><ele>166.501</ele><time>2026-08-13T21:06:51.999Z</time><hdop>4.687</hdop><vdop>3.812</vdop><extensions><gom:speed>0.946</gom:speed><gom:course>251.865</gom:course></extensions></trkpt>
   <trkpt lat="59.349239494" lon="34.6864751388"><ele>165.117</ele><time>2026-08-13T21:07:01.999Z</time><hdop>4.687</hdop><vdop>5.187</vdop><extensions><gom:speed>0.802</gom:speed><gom:course>272.915</gom:course></extensions></trkpt>
   <trkpt lat="59.3492661903" lon="34.6862834446"><ele>164.462</ele><time>2026-08-13T21:07:10.999Z</time><hdop>4.687</hdop><vdop>5.437</vdop><extensions><gom:speed>1.165</gom:speed><gom:course>292.125</gom:course></extensions></trkpt>
   <trkpt lat="59.3492922162" lon="34.6861135435"><ele>169.232</ele><time>2026-08-13T21:09:22.999Z</time><hdop>4.687</hdop><vdop>5.125</vdop><extensions><gom:speed>0.608</gom:speed><gom:course>287.972</gom:course></extensions></trkpt>
   <trkpt lat="59.3493167332" lon="34.6859207597"><ele>167.555</ele><time>2026-08-13T21:09:32.999Z</time><hdop>4.687</hdop><vdop>5.375</vdop><extensions><gom:speed>0.907</gom:speed><gom:course>291.674</gom:course></extensions></trkpt>
   <trkpt lat="59.349321469" lon="34.6857433148"><ele>165.982</ele><time>2026-08-13T21:09:44.999Z</time><hdop>4.687</hdop><vdop>5.062</vdop><extensions><gom:speed>1.076</gom:speed><gom:course>277.694</gom:course></extensions></trkpt>
   <trkpt lat="59.3493292642" lon="34.6855670434"><ele>166.708</ele><time>2026-08-13T21:09:51.999Z</time><hdop>4.687</hdop><vdop>5.062</vdop><extensions><gom:speed>1.16</gom:speed><gom:course>288.878</gom:course></extensions></trkpt>
   <trkpt lat="59.3493634204" lon="34.6853945438"><ele>167.2</ele><time>2026-08-13T21:10:01.999Z</time><hdop>4.687</hdop><vdop>5.062</vdop><extensions><gom:speed>0.845</gom:speed><gom:course>289.779</gom:course></extensions></trkpt>
   <trkpt lat="59.3493656416" lon="34.6852091361"><ele>167.935</ele><time>2026-08-13T21:10:11.999Z</time><hdop>4.687</hdop><vdop>5.125</vdop><extensions><gom:speed>0.667</gom:speed><gom:course>275.36</gom:course></extensions></trkpt>
   <trkpt lat="59.349372892" lon="34.6850285061"><ele>167.628</ele><time>2026-08-13T21:10:21.999Z</time><hdop>4.687</hdop><vdop>5.0</vdop><extensions><gom:speed>0.886</gom:speed><gom:course>263.005</gom:course></extensions></trkpt>
   <trkpt lat="59.3493855486" lon="34.6848389913"><ele>168.601</ele><time>2026-08-13T21:10:32.999Z</time><hdop>4.687</hdop><vdop>5.187</vdop><extensions><gom:speed>1.35</gom:speed><gom:course>284.357</gom:course></extensions></trkpt>
   <trkpt lat="59.3494606086" lon="34.6847181242"><ele>166.115</ele><time>2026-08-13T21:10:45.999Z</time><hdop>4.687</hdop><vdop>5.25</vdop><extensions><gom:speed>0.651</gom:speed><gom:course>328.666</gom:course></extensions></trkpt>
   <trkpt lat="59.3494882689" lon="34.6845486421"><ele>165.318</ele><time>2026-08-13T21:11:05.999Z</time><hdop>4.687</hdop><vdop>4.5</vdop><extensions><gom:speed>0.489</gom:speed><gom:course>327.518</gom:course></extensions></trkpt>
   <trkpt lat="59.349421968" lon="34.684411598"><ele>165.381</ele><time>2026-08-13T21:11:14.999Z</time><hdop>4.687</hdop><vdop>4.875</vdop><extensions><gom:speed>0.634</gom:speed><gom:course>243.614</gom:course></extensions></trkpt>
   <trkpt lat="59.3494145919" lon="34.6842353266"><ele>166.273</ele><time>2026-08-13T21:12:35.999Z</time><hdop>4.687</hdop><vdop>4.687</vdop><extensions><gom:speed>0.259</gom:speed><gom:course>265.301</gom:course></extensions></trkpt>
   <trkpt lat="59.3494105686" lon="34.6840538584"><ele>169.729</ele><time>2026-08-13T21:14:16.999Z</time><hdop>4.687</hdop><vdop>4.937</vdop><extensions><gom:speed>1.025</gom:speed><gom:course>278.875</gom:course></extensions></trkpt>
   <trkpt lat="59.349455328" lon="34.6838924229"><ele>166.32</ele><time>2026-08-13T21:14:31.999Z</time><hdop>4.687</hdop><vdop>4.812</vdop><extensions><gom:speed>0.589</gom:speed><gom:course>285.445</gom:course></extensions></trkpt>
   <trkpt lat="59.349476157" lon="34.6837194204"><ele>166.455</ele><time>2026-08-13T21:14:41.998Z</time><hdop>4.687</hdop><vdop>5.062</vdop><extensions><gom:speed>0.754</gom:speed><gom:course>287.439</gom:course></extensions></trkpt>
   <trkpt lat="59.3495052841" lon="34.6835301571"><ele>166.528</ele><time>2026-08-13T21:14:53.998Z</time><hdop>4.687</hdop><vdop>5.0</vdop><extensions><gom:speed>0.755</gom:speed><gom:course>305.924</gom:course></extensions></trkpt>
   <trkpt lat="59.3495234729" lon="34.6833559811"><ele>167.953</ele><time>2026-08-13T21:15:03.999Z</time><hdop>4.687</hdop><vdop>5.062</vdop><extensions><gom:speed>0.792</gom:speed><gom:course>286.39</gom:course></extensions></trkpt>
   <trkpt lat="59.3495635384" lon="34.6831908576"><ele>167.901</ele><time>2026-08-13T21:15:13.999Z</time><hdop>4.687</hdop><vdop>5.562</vdop><extensions><gom:speed>0.991</gom:speed><gom:course>296.404</gom:course></extensions></trkpt>
   <trkpt lat="59.3495951381" lon="34.6829986606"><ele>169.166</ele><time>2026-08-13T21:15:26.999Z</time><hdop>4.687</hdop><vdop>4.687</vdop><extensions><gom:speed>1.103</gom:speed><gom:course>282.578</gom:course></extensions></trkpt>
   <trkpt lat="59.3496213316" lon="34.6828228083"><ele>168.838</ele><time>2026-08-13T21:16:03.999Z</time><hdop>4.687</hdop><vdop>4.562</vdop><extensions><gom:speed>0.373</gom:speed><gom:course>288.911</gom:course></extensions></trkpt>
   <trkpt lat="59.349671623" lon="34.6826711796"><ele>169.123</ele><time>2026-08-13T21:18:13.999Z</time><hdop>4.687</hdop><vdop>4.937</vdop><extensions><gom:speed>0.692</gom:speed><gom:course>272.888</gom:course></extensions></trkpt>
   <trkpt lat="59.3497140773" lon="34.6825110853"><ele>169.452</ele><time>2026-08-13T21:18:24.999Z</time><hdop>4.687</hdop><vdop>5.187</vdop><extensions><gom:speed>0.773</gom:speed><gom:course>297.003</gom:course></extensions></trkpt>
   <trkpt lat="59.3497070365" lon="34.6823135238"><ele>168.435</ele><time>2026-08-13T21:18:34.999Z</time><hdop>4.687</hdop><vdop>4.437</vdop><extensions><gom:speed>0.996</gom:speed><gom:course>277.93</gom:course></extensions></trkpt>
   <trkpt lat="59.3497537237" lon="34.6821612246"><ele>168.922</ele><time>2026-08-13T21:18:52.998Z</time><hdop>4.687</hdop><vdop>4.625</vdop><extensions><gom:speed>0.519</gom:speed><gom:course>265.164</gom:course></extensions></trkpt>
   <trkpt lat="59.3497729183" lon="34.6819862943"><ele>167.601</ele><time>2026-08-13T21:19:52.999Z</time><hdop>4.687</hdop><vdop>4.875</vdop><extensions><gom:speed>1.027</gom:speed><gom:course>303.935</gom:course></extensions></trkpt>
   <trkpt lat="59.3498069488" lon="34.6818178181"><ele>166.299</ele><time>2026-08-13T21:20:08.999Z</time><hdop>4.687</hdop><vdop>5.0</vdop><extensions><gom:speed>0.822</gom:speed><gom:course>299.788</gom:course></extensions></trkpt>
   <trkpt lat="59.3498416918" lon="34.6816469949"><ele>166.801</ele><time>2026-08-13T21:20:20.999Z</time><hdop>4.687</hdop><vdop>4.687</vdop><extensions><gom:speed>0.764</gom:speed><gom:course>306.363</gom:course></extensions></trkpt>
   <trkpt lat="59.3498788656" lon="34.6814865653"><ele>165.234</ele><time>2026-08-13T21:20:34.999Z</time><hdop>4.687</hdop><vdop>4.312</vdop><extensions><gom:speed>0.328</gom:speed><gom:course>295.745</gom:course></extensions></trkpt>
   <trkpt lat="59.3499075736" lon="34.6813045941"><ele>165.062</ele><time>2026-08-13T21:20:58.998Z</time><hdop>4.687</hdop><vdop>4.937</vdop><extensions><gom:speed>0.794</gom:speed><gom:course>282.314</gom:course></extensions></trkpt>
   <trkpt lat="59.3499218647" lon="34.6811245509"><ele>165.495</ele><time>2026-08-13T21:21:13.998Z</time><hdop>4.687</hdop><vdop>5.25</vdop><extensions><gom:speed>0.409</gom:speed><gom:course>293.778</gom:course></extensions></trkpt>
   <trkpt lat="59.3499443701" lon="34.6809523866"><ele>166.406</ele><time>2026-08-13T21:21:36.999Z</time><hdop>4.687</hdop><vdop>5.0</vdop><extensions><gom:speed>0.581</gom:speed><gom:course>294.679</gom:course></extensions></trkpt>
   <trkpt lat="59.3499339766" lon="34.680777121"><ele>167.673</ele><time>2026-08-13T21:22:10.000Z</time><hdop>4.687</hdop><vdop>4.937</vdop><extensions><gom:speed>0.57</gom:speed><gom:course>297.591</gom:course></extensions></trkpt>
   <trkpt lat="59.3499398439" lon="34.6805970777"><ele>167.906</ele><time>2026-08-13T21:22:23.000Z</time><hdop>4.687</hdop><vdop>5.312</vdop><extensions><gom:speed>0.506</gom:speed><gom:course>282.127</gom:course></extensions></trkpt>
   <trkpt lat="59.3499458789" lon="34.68041628"><ele>167.743</ele><time>2026-08-13T21:22:42.999Z</time><hdop>4.687</hdop><vdop>4.75</vdop><extensions><gom:speed>0.719</gom:speed><gom:course>262.818</gom:course></extensions></trkpt>
   <trkpt lat="59.3499724076" lon="34.6802349795"><ele>166.152</ele><time>2026-08-13T21:22:56.999Z</time><hdop>4.687</hdop><vdop>5.187</vdop><extensions><gom:speed>0.683</gom:speed><gom:course>281.77</gom:course></extensions></trkpt>
   <trkpt lat="59.3500110063" lon="34.6800678443"><ele>165.875</ele><time>2026-08-13T21:23:13.999Z</time><hdop>4.687</hdop><vdop>4.875</vdop><extensions><gom:speed>0.559</gom:speed><gom:course>289.318</gom:course></extensions></trkpt>
   <trkpt lat="59.3500390856" lon="34.679896183"><ele>165.448</ele><time>2026-08-13T21:23:27.000Z</time><hdop>4.687</hdop><vdop>4.562</vdop><extensions><gom:speed>0.651</gom:speed><gom:course>267.411</gom:course></extensions></trkpt>
   <trkpt lat="59.3500515747" lon="34.6797215041"><ele>165.412</ele><time>2026-08-13T21:23:38.000Z</time><hdop>4.687</hdop><vdop>5.375</vdop><extensions><gom:speed>0.623</gom:speed><gom:course>280.21</gom:course></extensions></trkpt>
   <trkpt lat="59.3500415583" lon="34.6795454003"><ele>167.343</ele><time>2026-08-13T21:29:40.000Z</time><hdop>4.687</hdop><vdop>4.75</vdop><extensions><gom:speed>0.428</gom:speed><gom:course>247.696</gom:course></extensions></trkpt>
   <trkpt lat="59.3500078211" lon="34.6793697156"><ele>168.798</ele><time>2026-08-13T21:30:00.000Z</time><hdop>4.687</hdop><vdop>4.375</vdop><extensions><gom:speed>0.495</gom:speed><gom:course>259.358</gom:course></extensions></trkpt>
   <trkpt lat="59.3499808314" lon="34.6791868225"><ele>167.625</ele><time>2026-08-13T21:30:23.000Z</time><hdop>4.687</hdop><vdop>4.937</vdop><extensions><gom:speed>0.759</gom:speed><gom:course>269.976</gom:course></extensions></trkpt>
   <trkpt lat="59.3499452921" lon="34.6790125627"><ele>166.805</ele><time>2026-08-13T21:31:00.999Z</time><hdop>4.687</hdop><vdop>4.75</vdop><extensions><gom:speed>0.724</gom:speed><gom:course>237.044</gom:course></extensions></trkpt>
   <trkpt lat="59.3499408916" lon="34.6788352855"><ele>165.867</ele><time>2026-08-13T21:31:13.999Z</time><hdop>4.687</hdop><vdop>4.875</vdop><extensions><gom:speed>0.588</gom:speed><gom:course>288.159</gom:course></extensions></trkpt>
   <trkpt lat="59.3499542608" lon="34.6786540687"><ele>166.917</ele><time>2026-08-13T21:31:27.999Z</time><hdop>4.687</hdop><vdop>5.0</vdop><extensions><gom:speed>0.552</gom:speed><gom:course>274.717</gom:course></extensions></trkpt>
   <trkpt lat="59.3499362816" lon="34.6784586027"><ele>168.513</ele><time>2026-08-13T21:31:37.999Z</time><hdop>4.687</hdop><vdop>5.0</vdop><extensions><gom:speed>0.922</gom:speed><gom:course>259.61</gom:course></extensions></trkpt>
   <trkpt lat="59.3499315458" lon="34.6782757096"><ele>168.736</ele><time>2026-08-13T21:31:49.000Z</time><hdop>4.687</hdop><vdop>5.0</vdop><extensions><gom:speed>0.559</gom:speed><gom:course>286.28</gom:course></extensions></trkpt>
   <trkpt lat="59.3499708569" lon="34.6781056408"><ele>168.592</ele><time>2026-08-13T21:32:01.000Z</time><hdop>4.687</hdop><vdop>5.125</vdop><extensions><gom:speed>0.641</gom:speed><gom:course>305.084</gom:course></extensions></trkpt>
   <trkpt lat="59.3500209388" lon="34.6779472228"><ele>169.682</ele><time>2026-08-13T21:32:12.000Z</time><hdop>4.687</hdop><vdop>5.437</vdop><extensions><gom:speed>0.667</gom:speed><gom:course>311.566</gom:course></extensions></trkpt>
   <trkpt lat="59.3500529996" lon="34.6777729631"><ele>170.892</ele><time>2026-08-13T21:34:02.000Z</time><hdop>4.687</hdop><vdop>4.937</vdop><extensions><gom:speed>0.911</gom:speed><gom:course>274.376</gom:course></extensions></trkpt>
   <trkpt lat="59.3500640218" lon="34.6775890641"><ele>170.187</ele><time>2026-08-13T21:34:15.000Z</time><hdop>4.687</hdop><vdop>4.937</vdop><extensions><gom:speed>0.551</gom:speed><gom:course>286.764</gom:course></extensions></trkpt>
   <trkpt lat="59.3500933585" lon="34.6774220966"><ele>168.451</ele><time>2026-08-13T21:34:24.999Z</time><hdop>4.687</hdop><vdop>5.125</vdop><extensions><gom:speed>0.403</gom:speed><gom:course>285.643</gom:course></extensions></trkpt>
   <trkpt lat="59.3501409258" lon="34.6772598229"><ele>168.57</ele><time>2026-08-13T21:34:35.999Z</time><hdop>4.687</hdop><vdop>5.375</vdop><extensions><gom:speed>1.37</gom:speed><gom:course>296.135</gom:course></extensions></trkpt>
   <trkpt lat="59.3501961206" lon="34.6771059312"><ele>168.233</ele><time>2026-08-13T21:34:48.999Z</time><hdop>4.687</hdop><vdop>4.625</vdop><extensions><gom:speed>0.628</gom:speed><gom:course>305.342</gom:course></extensions></trkpt>
   <trkpt lat="59.350247334" lon="34.6769496087"><ele>171.192</ele><time>2026-08-13T21:36:40.999Z</time><hdop>4.687</hdop><vdop>4.125</vdop><extensions><gom:speed>1.004</gom:speed><gom:course>292.987</gom:course></extensions></trkpt>
   <trkpt lat="59.3502950271" lon="34.6767510414"><ele>171.735</ele><time>2026-08-13T21:37:00.999Z</time><hdop>4.687</hdop><vdop>4.312</vdop><extensions><gom:speed>1.299</gom:speed><gom:course>316.054</gom:course></extensions></trkpt>
   <trkpt lat="59.3503183287" lon="34.6765749376"><ele>171.487</ele><time>2026-08-13T21:37:13.999Z</time><hdop>4.687</hdop><vdop>4.937</vdop><extensions><gom:speed>0.483</gom:speed><gom:course>277.227</gom:course></extensions></trkpt>
   <trkpt lat="59.350330734" lon="34.6763956487"><ele>170.256</ele><time>2026-08-13T21:37:30.999Z</time><hdop>4.687</hdop><vdop>4.312</vdop><extensions><gom:speed>0.49</gom:speed><gom:course>278.26</gom:course></extensions></trkpt>
   <trkpt lat="59.3503803129" lon="34.676229687"><ele>168.853</ele><time>2026-08-13T21:37:47.999Z</time><hdop>4.687</hdop><vdop>5.062</vdop><extensions><gom:speed>0.615</gom:speed><gom:course>301.436</gom:course></extensions></trkpt>
   <trkpt lat="59.350397412" lon="34.676049979"><ele>168.56</ele><time>2026-08-13T21:38:00.998Z</time><hdop>4.687</hdop><vdop>4.875</vdop><extensions><gom:speed>0.534</gom:speed><gom:course>296.377</gom:course></extensions></trkpt>
   <trkpt lat="59.3504486673" lon="34.675882341"><ele>168.641</ele><time>2026-08-13T21:38:14.999Z</time><hdop>4.687</hdop><vdop>4.937</vdop><extensions><gom:speed>0.606</gom:speed><gom:course>297.014</gom:course></extensions></trkpt>
   <trkpt lat="59.3504383576" lon="34.6756951731"><ele>171.799</ele><time>2026-08-13T21:40:09.999Z</time><hdop>4.687</hdop><vdop>4.5</vdop><extensions><gom:speed>0.688</gom:speed><gom:course>258.336</gom:course></extensions></trkpt>
   <trkpt lat="59.3504745674" lon="34.6755323127"><ele>168.486</ele><time>2026-08-13T21:40:33.999Z</time><hdop>4.687</hdop><vdop>5.125</vdop><extensions><gom:speed>0.728</gom:speed><gom:course>330.83</gom:course></extensions></trkpt>
   <trkpt lat="59.3505298461" lon="34.6753885631"><ele>172.842</ele><time>2026-08-13T21:40:53.999Z</time><hdop>4.687</hdop><vdop>5.187</vdop><extensions><gom:speed>0.882</gom:speed><gom:course>295.426</gom:course></extensions></trkpt>
   <trkpt lat="59.3505814786" lon="34.6752401196"><ele>169.402</ele><time>2026-08-13T21:41:07.999Z</time><hdop>4.687</hdop><vdop>4.187</vdop><extensions><gom:speed>0.502</gom:speed><gom:course>303.633</gom:course></extensions></trkpt>
   <trkpt lat="59.3506274114" lon="34.6750778459"><ele>168.375</ele><time>2026-08-13T21:41:22.999Z</time><hdop>4.687</hdop><vdop>4.625</vdop><extensions><gom:speed>0.371</gom:speed><gom:course>310.434</gom:course></extensions></trkpt>
   <trkpt lat="59.3506914492" lon="34.6749367785"><ele>168.676</ele><time>2026-08-13T21:41:41.999Z</time><hdop>4.687</hdop><vdop>4.75</vdop><extensions><gom:speed>0.624</gom:speed><gom:course>339.257</gom:course></extensions></trkpt>
   <trkpt lat="59.3507240967" lon="34.6747684699"><ele>168.137</ele><time>2026-08-13T21:42:24.999Z</time><hdop>4.687</hdop><vdop>4.25</vdop><extensions><gom:speed>0.165</gom:speed></extensions></trkpt>
   <trkpt lat="59.3507559898" lon="34.6746021729"><ele>167.87</ele><time>2026-08-13T21:43:03.999Z</time><hdop>4.687</hdop><vdop>4.375</vdop><extensions><gom:speed>0.093</gom:speed><gom:course>326.227</gom:course></extensions></trkpt>
   <trkpt lat="59.3508046049" lon="34.6744461019"><ele>168.187</ele><time>2026-08-13T21:43:35.999Z</time><hdop>4.687</hdop><vdop>4.875</vdop><extensions><gom:speed>0.479</gom:speed><gom:course>308.121</gom:course></extensions></trkpt>
   <trkpt lat="59.3508149146" lon="34.6742612809"><ele>168.127</ele><time>2026-08-13T21:43:49.999Z</time><hdop>4.687</hdop><vdop>4.625</vdop><extensions><gom:speed>0.708</gom:speed><gom:course>262.297</gom:course></extensions></trkpt>
   <trkpt lat="59.3508709895" lon="34.6740962412"><ele>169.753</ele><time>2026-08-13T21:44:32.999Z</time><hdop>4.687</hdop><vdop>3.375</vdop><extensions><gom:speed>0.135</gom:speed><gom:course>353.539</gom:course></extensions></trkpt>
   <trkpt lat="59.3507789562" lon="34.6740204688"><ele>169.825</ele><time>2026-08-13T21:45:23.999Z</time><hdop>4.687</hdop><vdop>4.812</vdop><extensions><gom:speed>0.35</gom:speed><gom:course>161.611</gom:course></extensions></trkpt>
   <trkpt lat="59.3507587558" lon="34.6738306187"><ele>167.597</ele><time>2026-08-13T21:46:03.998Z</time><hdop>4.687</hdop><vdop>4.25</vdop><extensions><gom:speed>0.35</gom:speed><gom:course>218.785</gom:course></extensions></trkpt>
   <trkpt lat="59.350751757" lon="34.6736545149"><ele>167.744</ele><time>2026-08-13T21:46:16.998Z</time><hdop>4.687</hdop><vdop>5.062</vdop><extensions><gom:speed>0.756</gom:speed><gom:course>270.624</gom:course></extensions></trkpt>
   <trkpt lat="59.3507287486" lon="34.6734738849"><ele>169.062</ele><time>2026-08-13T21:48:16.998Z</time><hdop>4.687</hdop><vdop>5.125</vdop><extensions><gom:speed>0.682</gom:speed><gom:course>260.198</gom:course></extensions></trkpt>
   <trkpt lat="59.3507333587" lon="34.673297362"><ele>171.358</ele><time>2026-08-13T21:48:36.999Z</time><hdop>4.687</hdop><vdop>4.625</vdop><extensions><gom:speed>0.431</gom:speed><gom:course>260.434</gom:course></extensions></trkpt>
   <trkpt lat="59.3506862105" lon="34.673139447"><ele>168.694</ele><time>2026-08-13T21:48:53.999Z</time><hdop>4.687</hdop><vdop>4.75</vdop><extensions><gom:speed>0.612</gom:speed><gom:course>273.832</gom:course></extensions></trkpt>
   <trkpt lat="59.3506937961" lon="34.672962505"><ele>170.008</ele><time>2026-08-13T21:49:05.999Z</time><hdop>4.687</hdop><vdop>4.937</vdop><extensions><gom:speed>0.841</gom:speed><gom:course>277.079</gom:course></extensions></trkpt>
   <trkpt lat="59.3506984481" lon="34.6727780193"><ele>168.066</ele><time>2026-08-13T21:49:16.999Z</time><hdop>4.687</hdop><vdop>5.187</vdop><extensions><gom:speed>0.702</gom:speed><gom:course>266.614</gom:course></extensions></trkpt>
   <trkpt lat="59.3506735957" lon="34.6726019994"><ele>166.534</ele><time>2026-08-13T21:49:27.999Z</time><hdop>4.687</hdop><vdop>5.25</vdop><extensions><gom:speed>0.766</gom:speed><gom:course>253.013</gom:course></extensions></trkpt>
   <trkpt lat="59.3506570414" lon="34.6724192739"><ele>166.997</ele><time>2026-08-13T21:49:40.999Z</time><hdop>4.687</hdop><vdop>5.25</vdop><extensions><gom:speed>0.685</gom:speed><gom:course>276.035</gom:course></extensions></trkpt>
   <trkpt lat="59.3506416187" lon="34.6722331118"><ele>168.314</ele><time>2026-08-13T21:50:01.998Z</time><hdop>4.687</hdop><vdop>4.875</vdop><extensions><gom:speed>0.783</gom:speed><gom:course>265.906</gom:course></extensions></trkpt>
   <trkpt lat="59.3506422474" lon="34.6720523141"><ele>167.759</ele><time>2026-08-13T21:50:13.998Z</time><hdop>4.687</hdop><vdop>5.062</vdop><extensions><gom:speed>0.565</gom:speed><gom:course>258.023</gom:course></extensions></trkpt>
   <trkpt lat="59.3506422893" lon="34.6718659844"><ele>167.837</ele><time>2026-08-13T21:50:46.999Z</time><hdop>4.687</hdop><vdop>5.312</vdop><extensions><gom:speed>0.632</gom:speed><gom:course>260.226</gom:course></extensions></trkpt>
   <trkpt lat="59.3506266151" lon="34.6716864441"><ele>170.328</ele><time>2026-08-13T21:51:00.999Z</time><hdop>4.687</hdop><vdop>4.875</vdop><extensions><gom:speed>0.357</gom:speed><gom:course>256.177</gom:course></extensions></trkpt>
   <trkpt lat="59.3505737253" lon="34.6715318818"><ele>169.127</ele><time>2026-08-13T21:51:12.999Z</time><hdop>4.687</hdop><vdop>5.187</vdop><extensions><gom:speed>0.706</gom:speed><gom:course>232.369</gom:course></extensions></trkpt>
   <trkpt lat="59.3505364678" lon="34.6713570353"><ele>167.199</ele><time>2026-08-13T21:51:33.999Z</time><hdop>4.687</hdop><vdop>5.187</vdop><extensions><gom:speed>0.539</gom:speed><gom:course>253.43</gom:course></extensions></trkpt>
   <trkpt lat="59.3505197878" lon="34.6711820211"><ele>170.485</ele><time>2026-08-13T21:53:00.000Z</time><hdop>4.687</hdop><vdop>4.437</vdop><extensions><gom:speed>0.597</gom:speed><gom:course>269.202</gom:course></extensions></trkpt>
   <trkpt lat="59.3504856734" lon="34.6710036542"><ele>168.397</ele><time>2026-08-13T21:53:13.000Z</time><hdop>4.687</hdop><vdop>5.062</vdop><extensions><gom:speed>0.697</gom:speed><gom:course>265.642</gom:course></extensions></trkpt>
   <trkpt lat="59.3504356754" lon="34.6708381955"><ele>167.419</ele><time>2026-08-13T21:53:25.000Z</time><hdop>4.687</hdop><vdop>5.062</vdop><extensions><gom:speed>0.755</gom:speed><gom:course>244.455</gom:course></extensions></trkpt>
   <trkpt lat="59.3504267906" lon="34.6706616726"><ele>167.636</ele><time>2026-08-13T21:53:36.000Z</time><hdop>4.687</hdop><vdop>4.875</vdop><extensions><gom:speed>0.698</gom:speed><gom:course>285.121</gom:course></extensions></trkpt>
   <trkpt lat="59.3504456918" lon="34.670488251"><ele>168.263</ele><time>2026-08-13T21:53:47.000Z</time><hdop>4.687</hdop><vdop>5.062</vdop><extensions><gom:speed>0.653</gom:speed><gom:course>288.972</gom:course></extensions></trkpt>
   <trkpt lat="59.3504584742" lon="34.6703020889"><ele>169.09</ele><time>2026-08-13T21:53:57.999Z</time><hdop>4.687</hdop><vdop>4.937</vdop><extensions><gom:speed>0.631</gom:speed><gom:course>294.795</gom:course></extensions></trkpt>
   <trkpt lat="59.3504606115" lon="34.6701205369"><ele>169.436</ele><time>2026-08-13T21:54:07.999Z</time><hdop>4.687</hdop><vdop>5.312</vdop><extensions><gom:speed>0.876</gom:speed><gom:course>266.043</gom:course></extensions></trkpt>
   <trkpt lat="59.3504736873" lon="34.6699358836"><ele>170.112</ele><time>2026-08-13T21:54:18.999Z</time><hdop>4.687</hdop><vdop>5.25</vdop><extensions><gom:speed>0.703</gom:speed><gom:course>276.238</gom:course></extensions></trkpt>
   <trkpt lat="59.3505094361" lon="34.6697691675"><ele>169.062</ele><time>2026-08-13T21:54:29.999Z</time><hdop>4.687</hdop><vdop>5.687</vdop><extensions><gom:speed>0.882</gom:speed><gom:course>294.35</gom:course></extensions></trkpt>
   <trkpt lat="59.3505523096" lon="34.669606391"><ele>169.847</ele><time>2026-08-13T21:54:43.999Z</time><hdop>4.687</hdop><vdop>5.5</vdop><extensions><gom:speed>0.627</gom:speed><gom:course>300.975</gom:course></extensions></trkpt>
   <trkpt lat="59.3505384794" lon="34.6694262639"><ele>175.761</ele><time>2026-08-13T21:56:59.000Z</time><hdop>4.687</hdop><vdop>4.375</vdop><extensions><gom:speed>0.351</gom:speed><gom:course>260.846</gom:course></extensions></trkpt>
   <trkpt lat="59.3505190334" lon="34.6692531776"><ele>175.76</ele><time>2026-08-13T21:57:18.000Z</time><hdop>4.687</hdop><vdop>4.625</vdop><extensions><gom:speed>0.554</gom:speed><gom:course>285.582</gom:course></extensions></trkpt>
   <trkpt lat="59.3505341627" lon="34.6690786664"><ele>173.103</ele><time>2026-08-13T21:57:34.000Z</time><hdop>4.687</hdop><vdop>4.562</vdop><extensions><gom:speed>0.463</gom:speed><gom:course>263.357</gom:course></extensions></trkpt>
   <trkpt lat="59.3505306423" lon="34.6688883972"><ele>170.675</ele><time>2026-08-13T21:59:49.000Z</time><hdop>4.687</hdop><vdop>4.75</vdop><extensions><gom:speed>0.662</gom:speed><gom:course>271.69</gom:course></extensions></trkpt>
   <trkpt lat="59.350516896" lon="34.6687136345"><ele>169.383</ele><time>2026-08-13T22:00:00.999Z</time><hdop>4.687</hdop><vdop>5.0</vdop><extensions><gom:speed>0.406</gom:speed><gom:course>267.328</gom:course></extensions></trkpt>
   <trkpt lat="59.3504949774" lon="34.6685405482"><ele>169.911</ele><time>2026-08-13T22:00:13.999Z</time><hdop>4.687</hdop><vdop>4.437</vdop><extensions><gom:speed>0.545</gom:speed><gom:course>278.282</gom:course></extensions></trkpt>
   <trkpt lat="59.3504852963" lon="34.6683584094"><ele>168.578</ele><time>2026-08-13T22:00:27.999Z</time><hdop>4.687</hdop><vdop>4.5</vdop><extensions><gom:speed>0.491</gom:speed><gom:course>291.488</gom:course></extensions></trkpt>
   <trkpt lat="59.3505166865" lon="34.6681914419"><ele>170.707</ele><time>2026-08-13T22:01:42.000Z</time><hdop>4.687</hdop><vdop>4.937</vdop><extensions><gom:speed>0.0</gom:speed><gom:course>287.099</gom:course></extensions></trkpt>
   <trkpt lat="59.3505171894" lon="34.6680124045"><ele>172.76</ele><time>2026-08-13T22:02:08.999Z</time><hdop>4.687</hdop><vdop>3.937</vdop><extensions><gom:speed>0.026</gom:speed><gom:course>158.738</gom:course></extensions></trkpt>
   <trkpt lat="59.3505304747" lon="34.6678371389"><ele>168.509</ele><time>2026-08-13T22:02:21.999Z</time><hdop>4.687</hdop><vdop>4.687</vdop><extensions><gom:speed>0.596</gom:speed><gom:course>299.002</gom:course></extensions></trkpt>
   <trkpt lat="59.3505888966" lon="34.6676954847"><ele>169.033</ele><time>2026-08-13T22:02:36.999Z</time><hdop>4.687</hdop><vdop>4.25</vdop><extensions><gom:speed>0.418</gom:speed><gom:course>307.495</gom:course></extensions></trkpt>
   <trkpt lat="59.350612324" lon="34.6675204706"><ele>168.999</ele><time>2026-08-13T22:05:29.000Z</time><hdop>4.687</hdop><vdop>4.75</vdop><extensions><gom:speed>0.157</gom:speed><gom:course>197.905</gom:course></extensions></trkpt>
   <trkpt lat="59.3506659263" lon="34.6673678361"><ele>169.862</ele><time>2026-08-13T22:05:44.999Z</time><hdop>4.687</hdop><vdop>4.812</vdop><extensions><gom:speed>0.08</gom:speed><gom:course>197.905</gom:course></extensions></trkpt>
   <trkpt lat="59.3507208696" lon="34.667218722"><ele>170.191</ele><time>2026-08-13T22:05:56.999Z</time><hdop>4.687</hdop><vdop>4.5</vdop><extensions><gom:speed>0.187</gom:speed><gom:course>197.905</gom:course></extensions></trkpt>
   <trkpt lat="59.350787422" lon="34.6670943346"><ele>169.019</ele><time>2026-08-13T22:06:07.999Z</time><hdop>4.687</hdop><vdop>4.562</vdop><extensions><gom:speed>0.085</gom:speed><gom:course>197.905</gom:course></extensions></trkpt>
   <trkpt lat="59.3508245957" lon="34.6669256069"><ele>166.439</ele><time>2026-08-13T22:07:07.999Z</time><hdop>4.687</hdop><vdop>4.625</vdop><extensions><gom:speed>0.456</gom:speed><gom:course>285.346</gom:course></extensions></trkpt>
   <trkpt lat="59.3508765216" lon="34.6667733077"><ele>168.867</ele><time>2026-08-13T22:07:33.000Z</time><hdop>4.687</hdop><vdop>4.812</vdop><extensions><gom:speed>0.586</gom:speed><gom:course>312.01</gom:course></extensions></trkpt>
   <trkpt lat="59.350876773" lon="34.6665847149"><ele>167.993</ele><time>2026-08-13T22:07:50.999Z</time><hdop>4.687</hdop><vdop>4.25</vdop><extensions><gom:speed>0.594</gom:speed><gom:course>270.004</gom:course></extensions></trkpt>
   <trkpt lat="59.3508831433" lon="34.6663999777"><ele>170.594</ele><time>2026-08-13T22:08:30.999Z</time><hdop>4.687</hdop><vdop>5.125</vdop><extensions><gom:speed>0.726</gom:speed><gom:course>263.906</gom:course></extensions></trkpt>
   <trkpt lat="59.35084115" lon="34.6662431523"><ele>168.559</ele><time>2026-08-13T22:08:40.999Z</time><hdop>4.687</hdop><vdop>4.625</vdop><extensions><gom:speed>0.889</gom:speed><gom:course>238.676</gom:course></extensions></trkpt>
   <trkpt lat="59.3508501186" lon="34.6660673838"><ele>170.961</ele><time>2026-08-13T22:08:54.999Z</time><hdop>4.687</hdop><vdop>4.5</vdop><extensions><gom:speed>1.005</gom:speed><gom:course>301.134</gom:course></extensions></trkpt>
   <trkpt lat="59.3509051877" lon="34.6659160905"><ele>169.264</ele><time>2026-08-13T22:09:03.999Z</time><hdop>4.687</hdop><vdop>5.375</vdop><extensions><gom:speed>1.081</gom:speed><gom:course>288.159</gom:course></extensions></trkpt>
   <trkpt lat="59.3509053553" lon="34.6657395676"><ele>168.468</ele><time>2026-08-13T22:09:13.999Z</time><hdop>4.687</hdop><vdop>5.125</vdop><extensions><gom:speed>0.703</gom:speed><gom:course>294.905</gom:course></extensions></trkpt>
   <trkpt lat="59.3509123542" lon="34.665512418"><ele>170.507</ele><time>2026-08-13T22:09:24.999Z</time><hdop>4.687</hdop><vdop>3.187</vdop><extensions><gom:speed>2.405</gom:speed><gom:course>264.708</gom:course></extensions></trkpt>
   <trkpt lat="59.3509587061" lon="34.665353078"><ele>169.165</ele><time>2026-08-13T22:09:43.999Z</time><hdop>4.687</hdop><vdop>3.875</vdop><extensions><gom:speed>0.654</gom:speed><gom:course>307.523</gom:course></extensions></trkpt>
   <trkpt lat="59.3509244661" lon="34.6651883736"><ele>173.687</ele><time>2026-08-13T22:14:25.999Z</time><hdop>4.687</hdop><vdop>5.062</vdop><extensions><gom:speed>0.793</gom:speed><gom:course>271.932</gom:course></extensions></trkpt>
   <trkpt lat="59.3509301658" lon="34.6650033012"><ele>171.518</ele><time>2026-08-13T22:14:39.998Z</time><hdop>4.687</hdop><vdop>4.75</vdop><extensions><gom:speed>0.807</gom:speed><gom:course>270.547</gom:course></extensions></trkpt>
   <trkpt lat="59.3509178025" lon="34.6648081705"><ele>169.73</ele><time>2026-08-13T22:14:49.998Z</time><hdop>4.687</hdop><vdop>4.687</vdop><extensions><gom:speed>0.76</gom:speed><gom:course>272.734</gom:course></extensions></trkpt>
   <trkpt lat="59.3509285313" lon="34.6646141295"><ele>168.895</ele><time>2026-08-13T22:15:00.998Z</time><hdop>4.687</hdop><vdop>4.937</vdop><extensions><gom:speed>0.774</gom:speed><gom:course>294.707</gom:course></extensions></trkpt>
   <trkpt lat="59.3509817145" lon="34.6644662727"><ele>170.573</ele><time>2026-08-13T22:16:57.999Z</time><hdop>4.687</hdop><vdop>4.562</vdop><extensions><gom:speed>0.307</gom:speed><gom:course>204.112</gom:course></extensions></trkpt>
   <trkpt lat="59.3510323412" lon="34.664314225"><ele>170.106</ele><time>2026-08-13T22:17:12.999Z</time><hdop>4.687</hdop><vdop>4.687</vdop><extensions><gom:speed>0.226</gom:speed><gom:course>204.112</gom:course></extensions></trkpt>
   <trkpt lat="59.3510723648" lon="34.6641538791"><ele>167.342</ele><time>2026-08-13T22:17:41.998Z</time><hdop>4.687</hdop><vdop>5.562</vdop><extensions><gom:speed>0.963</gom:speed><gom:course>299.288</gom:course></extensions></trkpt>
   <trkpt lat="59.3511243326" lon="34.6639926951"><ele>167.865</ele><time>2026-08-13T22:17:52.998Z</time><hdop>4.687</hdop><vdop>5.062</vdop><extensions><gom:speed>0.94</gom:speed><gom:course>304.82</gom:course></extensions></trkpt>
   <trkpt lat="59.3511798208" lon="34.6638395578"><ele>167.119</ele><time>2026-08-13T22:18:03.999Z</time><hdop>4.687</hdop><vdop>5.125</vdop><extensions><gom:speed>0.861</gom:speed><gom:course>316.894</gom:course></extensions></trkpt>
   <trkpt lat="59.3512340936" lon="34.6636948861"><ele>169.006</ele><time>2026-08-13T22:18:16.999Z</time><hdop>4.687</hdop><vdop>5.0</vdop><extensions><gom:speed>0.694</gom:speed><gom:course>288.999</gom:course></extensions></trkpt>
   <trkpt lat="59.3513243248" lon="34.6636296749"><ele>169.006</ele><time>2026-08-13T22:18:27.999Z</time><hdop>4.687</hdop><vdop>5.062</vdop><extensions><gom:speed>0.984</gom:speed><gom:course>351.078</gom:course></extensions></trkpt>
   <trkpt lat="59.3514161066" lon="34.6635808084"><ele>167.656</ele><time>2026-08-13T22:18:38.999Z</time><hdop>4.687</hdop><vdop>5.187</vdop><extensions><gom:speed>0.713</gom:speed><gom:course>349.579</gom:course></extensions></trkpt>
   <trkpt lat="59.3515023145" lon="34.6635164354"><ele>167.246</ele><time>2026-08-13T22:18:49.999Z</time><hdop>4.687</hdop><vdop>5.125</vdop><extensions><gom:speed>0.47</gom:speed><gom:course>338.037</gom:course></extensions></trkpt>
   <trkpt lat="59.3515879356" lon="34.6634460274"><ele>167.736</ele><time>2026-08-13T22:19:06.999Z</time><hdop>4.687</hdop><vdop>4.687</vdop><extensions><gom:speed>0.238</gom:speed><gom:course>320.355</gom:course></extensions></trkpt>
   <trkpt lat="59.3516515962" lon="34.6632995956"><ele>164.55</ele><time>2026-08-13T22:20:05.999Z</time><hdop>4.687</hdop><vdop>5.187</vdop><extensions><gom:speed>1.194</gom:speed><gom:course>319.306</gom:course></extensions></trkpt>
   <trkpt lat="59.3517158854" lon="34.6631762978"><ele>165.16</ele><time>2026-08-13T22:20:22.999Z</time><hdop>4.687</hdop><vdop>4.937</vdop><extensions><gom:speed>0.915</gom:speed><gom:course>303.732</gom:course></extensions></trkpt>
   <trkpt lat="59.3517393547" lon="34.6630033791"><ele>166.323</ele><time>2026-08-13T22:20:32.999Z</time><hdop>4.687</hdop><vdop>5.062</vdop><extensions><gom:speed>1.048</gom:speed><gom:course>290.202</gom:course></extensions></trkpt>
   <trkpt lat="59.3517981957" lon="34.6628638204"><ele>167.571</ele><time>2026-08-13T22:20:43.999Z</time><hdop>4.687</hdop><vdop>5.812</vdop><extensions><gom:speed>0.871</gom:speed><gom:course>304.452</gom:course></extensions></trkpt>
   <trkpt lat="59.3518398537" lon="34.6626938354"><ele>168.65</ele><time>2026-08-13T22:20:55.999Z</time><hdop>4.687</hdop><vdop>5.687</vdop><extensions><gom:speed>0.771</gom:speed><gom:course>297.135</gom:course></extensions></trkpt>
   <trkpt lat="59.3518941265" lon="34.6625331543"><ele>169.114</ele><time>2026-08-13T22:21:08.999Z</time><hdop>4.687</hdop><vdop>5.125</vdop><extensions><gom:speed>0.856</gom:speed><gom:course>298.981</gom:course></extensions></trkpt>
   <trkpt lat="59.3519394726" lon="34.6623635046"><ele>169.337</ele><time>2026-08-13T22:21:21.998Z</time><hdop>4.687</hdop><vdop>4.562</vdop><extensions><gom:speed>0.649</gom:speed><gom:course>294.844</gom:course></extensions></trkpt>
   <trkpt lat="59.3520009958" lon="34.6622271311"><ele>168.662</ele><time>2026-08-13T22:21:36.998Z</time><hdop>4.687</hdop><vdop>4.687</vdop><extensions><gom:speed>0.703</gom:speed><gom:course>311.082</gom:course></extensions></trkpt>
   <trkpt lat="59.3520684282" lon="34.6620995585"><ele>170.493</ele><time>2026-08-13T22:23:04.000Z</time><hdop>4.687</hdop><vdop>4.937</vdop><extensions><gom:speed>0.941</gom:speed><gom:course>324.788</gom:course></extensions></trkpt>
   <trkpt lat="59.352139381" lon="34.6619462535"><ele>167.74</ele><time>2026-08-13T22:24:49.000Z</time><hdop>4.687</hdop><vdop>3.562</vdop><extensions><gom:speed>2.321</gom:speed><gom:course>299.585</gom:course></extensions></trkpt>
   <trkpt lat="59.3522116749" lon="34.6618336007"><ele>168.071</ele><time>2026-08-13T22:25:09.000Z</time><hdop>4.687</hdop><vdop>5.0</vdop><extensions><gom:speed>0.643</gom:speed><gom:course>325.255</gom:course></extensions></trkpt>
   <trkpt lat="59.3522729047" lon="34.6616952155"><ele>168.814</ele><time>2026-08-13T22:25:22.999Z</time><hdop>4.687</hdop><vdop>5.0</vdop><extensions><gom:speed>0.698</gom:speed><gom:course>305.232</gom:course></extensions></trkpt>
   <trkpt lat="59.3523493058" lon="34.6615821436"><ele>167.415</ele><time>2026-08-13T22:25:35.999Z</time><hdop>4.687</hdop><vdop>4.437</vdop><extensions><gom:speed>0.634</gom:speed><gom:course>321.871</gom:course></extensions></trkpt>
   <trkpt lat="59.3524297721" lon="34.661503689"><ele>168.145</ele><time>2026-08-13T22:25:45.999Z</time><hdop>4.687</hdop><vdop>5.0</vdop><extensions><gom:speed>0.765</gom:speed><gom:course>335.857</gom:course></extensions></trkpt>
   <trkpt lat="59.3525018983" lon="34.6613840792"><ele>167.753</ele><time>2026-08-13T22:25:58.999Z</time><hdop>4.687</hdop><vdop>5.25</vdop><extensions><gom:speed>0.864</gom:speed><gom:course>313.12</gom:course></extensions></trkpt>
   <trkpt lat="59.3525811492" lon="34.6612904534"><ele>167.479</ele><time>2026-08-13T22:26:10.999Z</time><hdop>4.687</hdop><vdop>5.0</vdop><extensions><gom:speed>0.957</gom:speed><gom:course>327.776</gom:course></extensions></trkpt>
   <trkpt lat="59.3526539461" lon="34.6611865178"><ele>167.761</ele><time>2026-08-13T22:26:21.000Z</time><hdop>4.687</hdop><vdop>5.625</vdop><extensions><gom:speed>0.9</gom:speed><gom:course>316.52</gom:course></extensions></trkpt>
   <trkpt lat="59.3527217137" lon="34.6610612083"><ele>167.66</ele><time>2026-08-13T22:26:34.000Z</time><hdop>4.687</hdop><vdop>4.75</vdop><extensions><gom:speed>0.605</gom:speed><gom:course>314.296</gom:course></extensions></trkpt>
   <trkpt lat="59.3527727595" lon="34.6609079871"><ele>166.249</ele><time>2026-08-13T22:26:46.000Z</time><hdop>4.687</hdop><vdop>4.75</vdop><extensions><gom:speed>0.607</gom:speed><gom:course>310.242</gom:course></extensions></trkpt>
   <trkpt lat="59.3528277867" lon="34.6607608847"><ele>165.611</ele><time>2026-08-13T22:27:05.000Z</time><hdop>4.687</hdop><vdop>5.187</vdop><extensions><gom:speed>0.386</gom:speed><gom:course>319.108</gom:course></extensions></trkpt>
   <trkpt lat="59.3528805927" lon="34.6606076636"><ele>165.12</ele><time>2026-08-13T22:27:26.999Z</time><hdop>4.687</hdop><vdop>4.625</vdop><extensions><gom:speed>0.755</gom:speed><gom:course>315.691</gom:course></extensions></trkpt>
   <trkpt lat="59.3529401461" lon="34.6604627404"><ele>167.763</ele><time>2026-08-13T22:27:50.999Z</time><hdop>4.687</hdop><vdop>4.562</vdop><extensions><gom:speed>0.064</gom:speed><gom:course>194.62</gom:course></extensions></trkpt>
   <trkpt lat="59.3529898508" lon="34.6603104413"><ele>167.241</ele><time>2026-08-13T22:28:11.999Z</time><hdop>4.687</hdop><vdop>4.625</vdop><extensions><gom:speed>0.06</gom:speed><gom:course>198.427</gom:course></extensions></trkpt>
   <trkpt lat="59.3530416091" lon="34.6601617463"><ele>168.747</ele><time>2026-08-13T22:28:24.000Z</time><hdop>4.687</hdop><vdop>5.0</vdop><extensions><gom:speed>0.443</gom:speed><gom:course>315.894</gom:course></extensions></trkpt>
   <trkpt lat="59.3530744661" lon="34.6599927671"><ele>170.031</ele><time>2026-08-13T22:29:00.000Z</time><hdop>4.687</hdop><vdop>4.875</vdop><extensions><gom:speed>0.623</gom:speed><gom:course>304.051</gom:course></extensions></trkpt>
   <trkpt lat="59.3531272302" lon="34.6598489337"><ele>170.674</ele><time>2026-08-13T22:29:20.999Z</time><hdop>4.687</hdop><vdop>4.562</vdop><extensions><gom:speed>0.442</gom:speed><gom:course>301.304</gom:course></extensions></trkpt>
   <trkpt lat="59.3531951655" lon="34.6597107161"><ele>170.569</ele><time>2026-08-13T22:29:33.999Z</time><hdop>4.687</hdop><vdop>4.75</vdop><extensions><gom:speed>0.816</gom:speed><gom:course>320.943</gom:course></extensions></trkpt>
   <trkpt lat="59.3532605444" lon="34.6595731691"><ele>169.84</ele><time>2026-08-13T22:29:46.999Z</time><hdop>4.687</hdop><vdop>5.187</vdop><extensions><gom:speed>0.79</gom:speed><gom:course>315.57</gom:course></extensions></trkpt>
   <trkpt lat="59.3533242888" lon="34.6594280783"><ele>172.039</ele><time>2026-08-13T22:29:57.999Z</time><hdop>4.687</hdop><vdop>5.062</vdop><extensions><gom:speed>0.718</gom:speed><gom:course>309.341</gom:course></extensions></trkpt>
   <trkpt lat="59.3533905058" lon="34.6593045291"><ele>171.191</ele><time>2026-08-13T22:30:09.999Z</time><hdop>4.687</hdop><vdop>4.375</vdop><extensions><gom:speed>0.513</gom:speed><gom:course>324.31</gom:course></extensions></trkpt>
   <trkpt lat="59.3534726065" lon="34.6592242304"><ele>171.804</ele><time>2026-08-13T22:30:21.999Z</time><hdop>4.687</hdop><vdop>4.812</vdop><extensions><gom:speed>0.612</gom:speed><gom:course>333.143</gom:course></extensions></trkpt>
   <trkpt lat="59.3535383207" lon="34.6590985857"><ele>172.437</ele><time>2026-08-13T22:30:33.000Z</time><hdop>4.687</hdop><vdop>4.75</vdop><extensions><gom:speed>0.51</gom:speed><gom:course>303.013</gom:course></extensions></trkpt>
   <trkpt lat="59.3535956948" lon="34.6589578536"><ele>172.486</ele><time>2026-08-13T22:30:44.000Z</time><hdop>4.687</hdop><vdop>4.437</vdop><extensions><gom:speed>0.55</gom:speed><gom:course>317.987</gom:course></extensions></trkpt>
   <trkpt lat="59.3536534461" lon="34.6588192169"><ele>171.846</ele><time>2026-08-13T22:30:58.000Z</time><hdop>4.687</hdop><vdop>4.75</vdop><extensions><gom:speed>0.492</gom:speed><gom:course>316.691</gom:course></extensions></trkpt>
   <trkpt lat="59.3537117003" lon="34.6586747129"><ele>171.628</ele><time>2026-08-13T22:33:45.999Z</time><hdop>4.687</hdop><vdop>4.375</vdop><extensions><gom:speed>0.73</gom:speed><gom:course>297.871</gom:course></extensions></trkpt>
   <trkpt lat="59.3537246504" lon="34.6584950887"><ele>171.248</ele><time>2026-08-13T22:33:56.999Z</time><hdop>4.687</hdop><vdop>4.312</vdop><extensions><gom:speed>1.122</gom:speed><gom:course>256.397</gom:course></extensions></trkpt>
   <trkpt lat="59.3538022249" lon="34.6583913207"><ele>171.248</ele><time>2026-08-13T22:34:08.999Z</time><hdop>4.687</hdop><vdop>5.0</vdop><extensions><gom:speed>0.413</gom:speed><gom:course>313.378</gom:course></extensions></trkpt>
   <trkpt lat="59.3538443859" lon="34.6582344953"><ele>170.473</ele><time>2026-08-13T22:34:19.999Z</time><hdop>4.687</hdop><vdop>4.75</vdop><extensions><gom:speed>0.481</gom:speed><gom:course>302.568</gom:course></extensions></trkpt>
   <trkpt lat="59.3538826073" lon="34.6580587268"><ele>169.03</ele><time>2026-08-13T22:34:31.999Z</time><hdop>4.687</hdop><vdop>4.687</vdop><extensions><gom:speed>0.617</gom:speed><gom:course>287.324</gom:course></extensions></trkpt>
   <trkpt lat="59.3539252293" lon="34.6578936871"><ele>171.522</ele><time>2026-08-13T22:34:45.000Z</time><hdop>4.687</hdop><vdop>4.5</vdop><extensions><gom:speed>0.247</gom:speed><gom:course>48.351</gom:course></extensions></trkpt>
   <trkpt lat="59.3539378022" lon="34.6577151526"><ele>170.599</ele><time>2026-08-13T22:34:55.000Z</time><hdop>4.687</hdop><vdop>4.125</vdop><extensions><gom:speed>0.026</gom:speed><gom:course>48.351</gom:course></extensions></trkpt>
   <trkpt lat="59.3539178532" lon="34.6575335167"><ele>169.212</ele><time>2026-08-13T22:35:06.999Z</time><hdop>4.687</hdop><vdop>4.0</vdop><extensions><gom:speed>0.121</gom:speed><gom:course>48.351</gom:course></extensions></trkpt>
   <trkpt lat="59.3538920789" lon="34.6573579997"><ele>169.921</ele><time>2026-08-13T22:35:17.999Z</time><hdop>4.687</hdop><vdop>3.937</vdop><extensions><gom:speed>0.243</gom:speed><gom:course>61.222</gom:course></extensions></trkpt>
   <trkpt lat="59.3539218346" lon="34.6571754418"><ele>172.574</ele><time>2026-08-13T22:35:35.999Z</time><hdop>4.687</hdop><vdop>4.187</vdop><extensions><gom:speed>0.012</gom:speed><gom:course>61.222</gom:course></extensions></trkpt>
   <trkpt lat="59.3539257741" lon="34.6569983322"><ele>168.851</ele><time>2026-08-13T22:36:23.999Z</time><hdop>4.687</hdop><vdop>4.562</vdop><extensions><gom:speed>0.123</gom:speed><gom:course>61.222</gom:course></extensions></trkpt>
   <trkpt lat="59.353937886" lon="34.6568077277"><ele>168.906</ele><time>2026-08-13T22:36:36.999Z</time><hdop>4.687</hdop><vdop>4.312</vdop><extensions><gom:speed>0.096</gom:speed><gom:course>61.222</gom:course></extensions></trkpt>
   <trkpt lat="59.3539479024" lon="34.6566275168"><ele>168.53</ele><time>2026-08-13T22:36:51.999Z</time><hdop>4.687</hdop><vdop>3.687</vdop><extensions><gom:speed>0.409</gom:speed><gom:course>291.164</gom:course></extensions></trkpt>
   <trkpt lat="59.3539509198" lon="34.656445881"><ele>167.479</ele><time>2026-08-13T22:37:18.999Z</time><hdop>4.687</hdop><vdop>4.625</vdop><extensions><gom:speed>0.274</gom:speed><gom:course>298.579</gom:course></extensions></trkpt>
   <trkpt lat="59.3539536021" lon="34.6562590484"><ele>168.85</ele><time>2026-08-13T22:37:37.999Z</time><hdop>4.687</hdop><vdop>4.625</vdop><extensions><gom:speed>0.427</gom:speed><gom:course>295.306</gom:course></extensions></trkpt>
   <trkpt lat="59.3539709107" lon="34.6560840342"><ele>168.167</ele><time>2026-08-13T22:37:55.999Z</time><hdop>4.687</hdop><vdop>4.687</vdop><extensions><gom:speed>0.256</gom:speed><gom:course>273.816</gom:course></extensions></trkpt>
   <trkpt lat="59.3540048155" lon="34.6559136301"><ele>166.652</ele><time>2026-08-13T22:38:16.999Z</time><hdop>4.687</hdop><vdop>4.875</vdop><extensions><gom:speed>0.567</gom:speed><gom:course>267.257</gom:course></extensions></trkpt>
   <trkpt lat="59.3540157539" lon="34.655715901"><ele>164.292</ele><time>2026-08-13T22:38:35.999Z</time><hdop>4.687</hdop><vdop>4.75</vdop><extensions><gom:speed>0.795</gom:speed><gom:course>272.618</gom:course></extensions></trkpt>
   <trkpt lat="59.3540317214" lon="34.6555300742"><ele>164.877</ele><time>2026-08-13T22:38:54.999Z</time><hdop>4.687</hdop><vdop>5.25</vdop><extensions><gom:speed>0.759</gom:speed><gom:course>279.908</gom:course></extensions></trkpt>
   <trkpt lat="59.3539947153" lon="34.6553647831"><ele>168.671</ele><time>2026-08-13T22:40:32.999Z</time><hdop>4.687</hdop><vdop>4.937</vdop><extensions><gom:speed>0.487</gom:speed><gom:course>191.099</gom:course></extensions></trkpt>
   <trkpt lat="59.3540206992" lon="34.6551958878"><ele>167.649</ele><time>2026-08-13T22:41:42.999Z</time><hdop>4.687</hdop><vdop>4.5</vdop><extensions><gom:speed>0.543</gom:speed><gom:course>259.753</gom:course></extensions></trkpt>
   <trkpt lat="59.3540287039" lon="34.6550181914"><ele>166.772</ele><time>2026-08-13T22:42:12.999Z</time><hdop>4.687</hdop><vdop>5.187</vdop><extensions><gom:speed>0.591</gom:speed><gom:course>269.394</gom:course></extensions></trkpt>
   <trkpt lat="59.3540646623" lon="34.6548420876"><ele>167.292</ele><time>2026-08-13T22:42:32.999Z</time><hdop>4.687</hdop><vdop>4.937</vdop><extensions><gom:speed>0.619</gom:speed><gom:course>280.474</gom:course></extensions></trkpt>
   <trkpt lat="59.3540662129" lon="34.6546443585"><ele>168.417</ele><time>2026-08-13T22:44:42.999Z</time><hdop>4.687</hdop><vdop>4.375</vdop><extensions><gom:speed>1.115</gom:speed><gom:course>265.076</gom:course></extensions></trkpt>
   <trkpt lat="59.3540817614" lon="34.6544695959"><ele>169.073</ele><time>2026-08-13T22:45:04.998Z</time><hdop>4.687</hdop><vdop>4.625</vdop><extensions><gom:speed>0.292</gom:speed><gom:course>282.039</gom:course></extensions></trkpt>
   <trkpt lat="59.3540735471" lon="34.6542877086"><ele>168.656</ele><time>2026-08-13T22:45:18.999Z</time><hdop>4.687</hdop><vdop>4.937</vdop><extensions><gom:speed>0.467</gom:speed><gom:course>264.554</gom:course></extensions></trkpt>
   <trkpt lat="59.354065249" lon="34.6540900633"><ele>167.759</ele><time>2026-08-13T22:45:32.999Z</time><hdop>4.687</hdop><vdop>4.812</vdop><extensions><gom:speed>0.754</gom:speed><gom:course>271.783</gom:course></extensions></trkpt>
   <trkpt lat="59.3540734214" lon="34.6539106067"><ele>169.24</ele><time>2026-08-13T22:46:19.999Z</time><hdop>4.687</hdop><vdop>5.062</vdop><extensions><gom:speed>0.575</gom:speed><gom:course>259.023</gom:course></extensions></trkpt>
   <trkpt lat="59.3540641175" lon="34.6537319046"><ele>169.72</ele><time>2026-08-13T22:46:36.999Z</time><hdop>4.687</hdop><vdop>4.625</vdop><extensions><gom:speed>0.34</gom:speed><gom:course>260.281</gom:course></extensions></trkpt>
   <trkpt lat="59.3540479823" lon="34.6535449881"><ele>168.408</ele><time>2026-08-13T22:46:53.998Z</time><hdop>4.687</hdop><vdop>4.375</vdop><extensions><gom:speed>0.302</gom:speed><gom:course>271.965</gom:course></extensions></trkpt>
   <trkpt lat="59.3540113953" lon="34.6533776853"><ele>167.677</ele><time>2026-08-13T22:47:09.998Z</time><hdop>4.687</hdop><vdop>4.875</vdop><extensions><gom:speed>0.487</gom:speed><gom:course>250.799</gom:course></extensions></trkpt>
   <trkpt lat="59.3539877583" lon="34.6531969715"><ele>168.682</ele><time>2026-08-13T22:47:23.999Z</time><hdop>4.687</hdop><vdop>5.062</vdop><extensions><gom:speed>0.669</gom:speed><gom:course>251.656</gom:course></extensions></trkpt>
   <trkpt lat="59.3539856628" lon="34.6530034334"><ele>169.537</ele><time>2026-08-13T22:47:40.999Z</time><hdop>4.687</hdop><vdop>4.875</vdop><extensions><gom:speed>0.515</gom:speed><gom:course>265.499</gom:course></extensions></trkpt>
   <trkpt lat="59.353968899" lon="34.6528295927"><ele>169.103</ele><time>2026-08-13T22:48:01.999Z</time><hdop>4.687</hdop><vdop>5.125</vdop><extensions><gom:speed>0.512</gom:speed><gom:course>275.371</gom:course></extensions></trkpt>
   <trkpt lat="59.3539623192" lon="34.6526498009"><ele>168.896</ele><time>2026-08-13T22:48:14.999Z</time><hdop>4.687</hdop><vdop>4.812</vdop><extensions><gom:speed>0.432</gom:speed><gom:course>267.867</gom:course></extensions></trkpt>
   <trkpt lat="59.3539548593" lon="34.6524728589"><ele>169.774</ele><time>2026-08-13T22:48:30.999Z</time><hdop>4.687</hdop><vdop>4.75</vdop><extensions><gom:speed>0.17</gom:speed><gom:course>216.95</gom:course></extensions></trkpt>
   <trkpt lat="59.3539365449" lon="34.6522892952"><ele>171.419</ele><time>2026-08-13T22:48:45.998Z</time><hdop>4.687</hdop><vdop>4.375</vdop><extensions><gom:speed>0.173</gom:speed><gom:course>216.95</gom:course></extensions></trkpt>
   <trkpt lat="59.3539288754" lon="34.6521072403"><ele>169.695</ele><time>2026-08-13T22:49:01.998Z</time><hdop>4.687</hdop><vdop>4.562</vdop><extensions><gom:speed>0.257</gom:speed><gom:course>257.298</gom:course></extensions></trkpt>
   <trkpt lat="59.3539387242" lon="34.6519234251"><ele>170.418</ele><time>2026-08-13T22:49:18.998Z</time><hdop>4.687</hdop><vdop>4.687</vdop><extensions><gom:speed>0.575</gom:speed><gom:course>279.348</gom:course></extensions></trkpt>
   <trkpt lat="59.3539450525" lon="34.651744723"><ele>171.143</ele><time>2026-08-13T22:49:37.999Z</time><hdop>4.687</hdop><vdop>4.5</vdop><extensions><gom:speed>0.583</gom:speed><gom:course>275.689</gom:course></extensions></trkpt>
   <trkpt lat="59.3539714974" lon="34.6515701279"><ele>173.005</ele><time>2026-08-13T22:49:53.999Z</time><hdop>4.687</hdop><vdop>4.625</vdop><extensions><gom:speed>0.653</gom:speed><gom:course>274.459</gom:course></extensions></trkpt>
   <trkpt lat="59.3539567872" lon="34.6513961196"><ele>172.585</ele><time>2026-08-13T22:50:04.999Z</time><hdop>4.687</hdop><vdop>4.5</vdop><extensions><gom:speed>0.444</gom:speed><gom:course>270.449</gom:course></extensions></trkpt>
   <trkpt lat="59.3539416578" lon="34.651215741"><ele>179.533</ele><time>2026-08-13T22:51:24.998Z</time><hdop>4.687</hdop><vdop>4.437</vdop><extensions><gom:speed>2.839</gom:speed><gom:course>214.879</gom:course></extensions></trkpt>
   <trkpt lat="59.3539329826" lon="34.6510367036"><ele>170.951</ele><time>2026-08-13T22:52:15.999Z</time><hdop>4.687</hdop><vdop>4.562</vdop><extensions><gom:speed>0.749</gom:speed><gom:course>275.442</gom:course></extensions></trkpt>
   <trkpt lat="59.3539197811" lon="34.6508532237"><ele>173.051</ele><time>2026-08-13T22:55:17.999Z</time><hdop>4.687</hdop><vdop>4.437</vdop><extensions><gom:speed>1.415</gom:speed><gom:course>237.253</gom:course></extensions></trkpt>
   <trkpt lat="59.3538269934" lon="34.6509211172"><ele>172.18</ele><time>2026-08-13T22:59:42.999Z</time><hdop>4.25</hdop><vdop>3.75</vdop><extensions><gom:speed>0.988</gom:speed><gom:course>174.41</gom:course></extensions></trkpt>
   <trkpt lat="59.3538772429" lon="34.6507667225"><ele>170.576</ele><time>2026-08-13T23:00:08.000Z</time><hdop>4.687</hdop><vdop>3.75</vdop><extensions><gom:speed>0.418</gom:speed></extensions></trkpt>
   <trkpt lat="59.3538309748" lon="34.6506145071"><ele>170.037</ele><time>2026-08-13T23:00:30.000Z</time><hdop>4.687</hdop><vdop>4.937</vdop><extensions><gom:speed>0.246</gom:speed><gom:course>186.852</gom:course></extensions></trkpt>
   <trkpt lat="59.3537933401" lon="34.6504513953"><ele>170.224</ele><time>2026-08-13T23:00:43.999Z</time><hdop>4.687</hdop><vdop>4.562</vdop><extensions><gom:speed>0.364</gom:speed><gom:course>277.507</gom:course></extensions></trkpt>
   <trkpt lat="59.3538064577" lon="34.6502762973"><ele>173.34</ele><time>2026-08-13T23:01:01.999Z</time><hdop>4.687</hdop><vdop>4.562</vdop><extensions><gom:speed>0.527</gom:speed><gom:course>268.246</gom:course></extensions></trkpt>
   <trkpt lat="59.3537901549" lon="34.6501003612"><ele>173.263</ele><time>2026-08-13T23:01:15.999Z</time><hdop>4.687</hdop><vdop>4.812</vdop><extensions><gom:speed>0.234</gom:speed><gom:course>271.042</gom:course></extensions></trkpt>
   <trkpt lat="59.3538314358" lon="34.6499379199"><ele>172.472</ele><time>2026-08-13T23:01:56.000Z</time><hdop>4.687</hdop><vdop>4.875</vdop><extensions><gom:speed>0.311</gom:speed><gom:course>281.825</gom:course></extensions></trkpt>
   <trkpt lat="59.3537886881" lon="34.6497748081"><ele>172.111</ele><time>2026-08-13T23:02:30.000Z</time><hdop>4.687</hdop><vdop>4.187</vdop><extensions><gom:speed>0.375</gom:speed><gom:course>221.723</gom:course></extensions></trkpt>
   <trkpt lat="59.3537831141" lon="34.6495777495"><ele>172.157</ele><time>2026-08-13T23:02:45.999Z</time><hdop>4.687</hdop><vdop>4.562</vdop><extensions><gom:speed>0.494</gom:speed><gom:course>256.853</gom:course></extensions></trkpt>
   <trkpt lat="59.3538153007" lon="34.6494066749"><ele>175.027</ele><time>2026-08-13T23:03:04.999Z</time><hdop>4.687</hdop><vdop>4.25</vdop><extensions><gom:speed>0.424</gom:speed><gom:course>284.017</gom:course></extensions></trkpt>
   <trkpt lat="59.3538510914" lon="34.6492415514"><ele>175.467</ele><time>2026-08-13T23:03:20.999Z</time><hdop>4.687</hdop><vdop>4.437</vdop><extensions><gom:speed>0.321</gom:speed><gom:course>308.682</gom:course></extensions></trkpt>
   <trkpt lat="59.3538366745" lon="34.6490651123"><ele>173.496</ele><time>2026-08-13T23:04:34.000Z</time><hdop>4.687</hdop><vdop>4.5</vdop><extensions><gom:speed>0.119</gom:speed><gom:course>17.094</gom:course></extensions></trkpt>
   <trkpt lat="59.3538937972" lon="34.6489136513"><ele>170.69</ele><time>2026-08-13T23:05:08.999Z</time><hdop>4.687</hdop><vdop>4.937</vdop><extensions><gom:speed>0.454</gom:speed><gom:course>3.795</gom:course></extensions></trkpt>
   <trkpt lat="59.3539793764" lon="34.6488263957"><ele>168.805</ele><time>2026-08-13T23:05:29.999Z</time><hdop>4.687</hdop><vdop>4.937</vdop><extensions><gom:speed>0.38</gom:speed><gom:course>298.656</gom:course></extensions></trkpt>
   <trkpt lat="59.3540572024" lon="34.6487319317"><ele>169.059</ele><time>2026-08-13T23:05:50.999Z</time><hdop>4.687</hdop><vdop>5.0</vdop><extensions><gom:speed>0.203</gom:speed><gom:course>303.293</gom:course></extensions></trkpt>
   <trkpt lat="59.3541024647" lon="34.6485637907"><ele>169.05</ele><time>2026-08-13T23:07:29.999Z</time><hdop>4.687</hdop><vdop>4.437</vdop><extensions><gom:speed>0.514</gom:speed><gom:course>284.616</gom:course></extensions></trkpt>
   <trkpt lat="59.3541134869" lon="34.6483822387"><ele>168.224</ele><time>2026-08-13T23:07:42.999Z</time><hdop>4.687</hdop><vdop>5.062</vdop><extensions><gom:speed>0.424</gom:speed><gom:course>246.883</gom:course></extensions></trkpt>
   <trkpt lat="59.3541266884" lon="34.6482064702"><ele>168.804</ele><time>2026-08-13T23:07:57.999Z</time><hdop>4.687</hdop><vdop>4.875</vdop><extensions><gom:speed>0.213</gom:speed><gom:course>277.546</gom:course></extensions></trkpt>
   <trkpt lat="59.3541491099" lon="34.6480209787"><ele>169.067</ele><time>2026-08-13T23:08:16.000Z</time><hdop>4.687</hdop><vdop>4.687</vdop><extensions><gom:speed>0.568</gom:speed><gom:course>309.203</gom:course></extensions></trkpt>
   <trkpt lat="59.3541688493" lon="34.6478468027"><ele>169.893</ele><time>2026-08-13T23:08:33.000Z</time><hdop>4.687</hdop><vdop>4.875</vdop><extensions><gom:speed>0.546</gom:speed><gom:course>287.483</gom:course></extensions></trkpt>
   <trkpt lat="59.3541651194" lon="34.6476671785"><ele>170.806</ele><time>2026-08-13T23:08:48.999Z</time><hdop>4.687</hdop><vdop>4.25</vdop><extensions><gom:speed>0.387</gom:speed><gom:course>286.807</gom:course></extensions></trkpt>
   <trkpt lat="59.3541806259" lon="34.6474918291"><ele>171.363</ele><time>2026-08-13T23:09:05.999Z</time><hdop>4.687</hdop><vdop>4.437</vdop><extensions><gom:speed>0.536</gom:speed><gom:course>260.709</gom:course></extensions></trkpt>
   <trkpt lat="59.3542035085" lon="34.6473141328"><ele>169.968</ele><time>2026-08-13T23:09:22.999Z</time><hdop>4.687</hdop><vdop>4.312</vdop><extensions><gom:speed>0.43</gom:speed><gom:course>307.49</gom:course></extensions></trkpt>
   <trkpt lat="59.3541707772" lon="34.6471408788"><ele>169.663</ele><time>2026-08-13T23:09:35.999Z</time><hdop>4.687</hdop><vdop>4.5</vdop><extensions><gom:speed>0.322</gom:speed><gom:course>229.815</gom:course></extensions></trkpt>
   <trkpt lat="59.3541881696" lon="34.646963853"><ele>171.378</ele><time>2026-08-13T23:09:52.999Z</time><hdop>4.687</hdop><vdop>4.937</vdop><extensions><gom:speed>0.347</gom:speed><gom:course>254.425</gom:course></extensions></trkpt>
   <trkpt lat="59.3542178835" lon="34.6467896771"><ele>170.828</ele><time>2026-08-13T23:10:08.999Z</time><hdop>4.687</hdop><vdop>4.812</vdop><extensions><gom:speed>0.527</gom:speed><gom:course>295.349</gom:course></extensions></trkpt>
   <trkpt lat="59.3542268521" lon="34.6466049399"><ele>169.883</ele><time>2026-08-13T23:10:24.000Z</time><hdop>4.687</hdop><vdop>4.875</vdop><extensions><gom:speed>0.288</gom:speed><gom:course>290.982</gom:course></extensions></trkpt>
   <trkpt lat="59.3542675462" lon="34.6464320213"><ele>169.793</ele><time>2026-08-13T23:10:46.999Z</time><hdop>4.687</hdop><vdop>4.5</vdop><extensions><gom:speed>0.432</gom:speed><gom:course>308.171</gom:course></extensions></trkpt>
   <trkpt lat="59.3543090367" lon="34.6462649699"><ele>171.54</ele><time>2026-08-13T23:11:50.999Z</time><hdop>4.687</hdop><vdop>4.437</vdop><extensions><gom:speed>0.579</gom:speed><gom:course>295.36</gom:course></extensions></trkpt>
   <trkpt lat="59.3543634352" lon="34.6461205497"><ele>170.616</ele><time>2026-08-13T23:12:15.999Z</time><hdop>4.687</hdop><vdop>4.687</vdop><extensions><gom:speed>0.038</gom:speed><gom:course>265.318</gom:course></extensions></trkpt>
   <trkpt lat="59.3544115054" lon="34.6459618803"><ele>169.364</ele><time>2026-08-13T23:13:33.999Z</time><hdop>4.687</hdop><vdop>5.0</vdop><extensions><gom:speed>0.486</gom:speed><gom:course>319.3</gom:course></extensions></trkpt>
   <trkpt lat="59.3544585279" lon="34.64578695"><ele>172.123</ele><time>2026-08-13T23:13:52.999Z</time><hdop>4.687</hdop><vdop>4.562</vdop><extensions><gom:speed>1.946</gom:speed><gom:course>293.366</gom:course></extensions></trkpt>
   <trkpt lat="59.3545066819" lon="34.6456266042"><ele>169.065</ele><time>2026-08-13T23:14:23.999Z</time><hdop>4.687</hdop><vdop>5.062</vdop><extensions><gom:speed>0.557</gom:speed><gom:course>304.43</gom:course></extensions></trkpt>
   <trkpt lat="59.3545439395" lon="34.6454602234"><ele>168.332</ele><time>2026-08-13T23:14:44.999Z</time><hdop>4.687</hdop><vdop>4.812</vdop><extensions><gom:speed>0.539</gom:speed><gom:course>298.228</gom:course></extensions></trkpt>
   <trkpt lat="59.3546142637" lon="34.6453212515"><ele>166.405</ele><time>2026-08-13T23:16:56.999Z</time><hdop>4.687</hdop><vdop>3.687</vdop><extensions><gom:speed>1.364</gom:speed><gom:course>336.049</gom:course></extensions></trkpt>
   <trkpt lat="59.3545511479" lon="34.6454494108"><ele>167.264</ele><time>2026-08-13T23:23:13.999Z</time><hdop>4.687</hdop><vdop>5.062</vdop><extensions><gom:speed>0.498</gom:speed><gom:course>107.574</gom:course></extensions></trkpt>
   <trkpt lat="59.3545118368" lon="34.6456105109"><ele>166.725</ele><time>2026-08-13T23:23:47.999Z</time><hdop>4.687</hdop><vdop>4.562</vdop><extensions><gom:speed>0.722</gom:speed><gom:course>121.604</gom:course></extensions></trkpt>
   <trkpt lat="59.3544642276" lon="34.6457613014"><ele>167.344</ele><time>2026-08-13T23:24:06.999Z</time><hdop>4.687</hdop><vdop>4.375</vdop><extensions><gom:speed>0.139</gom:speed><gom:course>114.094</gom:course></extensions></trkpt>
   <trkpt lat="59.3544067697" lon="34.6459001057"><ele>167.903</ele><time>2026-08-13T23:24:24.998Z</time><hdop>4.687</hdop><vdop>5.0</vdop><extensions><gom:speed>0.674</gom:speed><gom:course>110.699</gom:course></extensions></trkpt>
   <trkpt lat="59.3543617588" lon="34.6460554224"><ele>169.167</ele><time>2026-08-13T23:24:37.998Z</time><hdop>4.687</hdop><vdop>5.375</vdop><extensions><gom:speed>0.564</gom:speed><gom:course>115.858</gom:course></extensions></trkpt>
   <trkpt lat="59.354302373" lon="34.6462060452"><ele>169.843</ele><time>2026-08-13T23:24:53.998Z</time><hdop>4.687</hdop><vdop>4.437</vdop><extensions><gom:speed>0.559</gom:speed><gom:course>121.488</gom:course></extensions></trkpt>
   <trkpt lat="59.3542571108" lon="34.6463715039"><ele>170.953</ele><time>2026-08-13T23:25:27.999Z</time><hdop>4.687</hdop><vdop>4.75</vdop><extensions><gom:speed>0.331</gom:speed><gom:course>75.999</gom:course></extensions></trkpt>
   <trkpt lat="59.3542103817" lon="34.6465311792"><ele>169.947</ele><time>2026-08-13T23:26:06.999Z</time><hdop>4.687</hdop><vdop>4.375</vdop><extensions><gom:speed>0.208</gom:speed><gom:course>132.26</gom:course></extensions></trkpt>
   <trkpt lat="59.3541977669" lon="34.6467088755"><ele>170.777</ele><time>2026-08-13T23:26:24.998Z</time><hdop>4.687</hdop><vdop>4.75</vdop><extensions><gom:speed>0.395</gom:speed><gom:course>99.823</gom:course></extensions></trkpt>
   <trkpt lat="59.3542041371" lon="34.6468968816"><ele>169.673</ele><time>2026-08-13T23:26:42.998Z</time><hdop>4.687</hdop><vdop>4.437</vdop><extensions><gom:speed>1.173</gom:speed><gom:course>78.037</gom:course></extensions></trkpt>
   <trkpt lat="59.3541597969" lon="34.6470609155"><ele>171.024</ele><time>2026-08-13T23:27:29.999Z</time><hdop>4.687</hdop><vdop>4.375</vdop><extensions><gom:speed>0.611</gom:speed><gom:course>90.907</gom:course></extensions></trkpt>
   <trkpt lat="59.3541607608" lon="34.6472559623"><ele>169.419</ele><time>2026-08-13T23:27:46.999Z</time><hdop>4.687</hdop><vdop>4.812</vdop><extensions><gom:speed>0.488</gom:speed><gom:course>84.195</gom:course></extensions></trkpt>
   <trkpt lat="59.3541615571" lon="34.6474561222"><ele>170.962</ele><time>2026-08-13T23:28:01.999Z</time><hdop>4.687</hdop><vdop>4.25</vdop><extensions><gom:speed>0.584</gom:speed><gom:course>71.73</gom:course></extensions></trkpt>
   <trkpt lat="59.354146763" lon="34.6476347406"><ele>170.521</ele><time>2026-08-13T23:28:22.998Z</time><hdop>4.687</hdop><vdop>4.125</vdop><extensions><gom:speed>0.148</gom:speed><gom:course>96.241</gom:course></extensions></trkpt>
   <trkpt lat="59.3541325976" lon="34.647817969"><ele>169.492</ele><time>2026-08-13T23:28:41.998Z</time><hdop>4.687</hdop><vdop>4.5</vdop><extensions><gom:speed>0.149</gom:speed><gom:course>82.255</gom:course></extensions></trkpt>
   <trkpt lat="59.3541108466" lon="34.6479959168"><ele>171.717</ele><time>2026-08-13T23:28:55.998Z</time><hdop>4.687</hdop><vdop>4.437</vdop><extensions><gom:speed>0.192</gom:speed><gom:course>92.281</gom:course></extensions></trkpt>
   <trkpt lat="59.3541097988" lon="34.648187108"><ele>172.598</ele><time>2026-08-13T23:29:10.998Z</time><hdop>4.687</hdop><vdop>4.937</vdop><extensions><gom:speed>0.526</gom:speed><gom:course>77.355</gom:course></extensions></trkpt>
   <trkpt lat="59.3541025066" lon="34.6483763713"><ele>168.869</ele><time>2026-08-13T23:29:28.999Z</time><hdop>4.687</hdop><vdop>4.187</vdop><extensions><gom:speed>0.207</gom:speed><gom:course>66.078</gom:course></extensions></trkpt>
   <trkpt lat="59.3540723317" lon="34.6485569175"><ele>169.082</ele><time>2026-08-13T23:29:41.999Z</time><hdop>4.687</hdop><vdop>4.375</vdop><extensions><gom:speed>0.579</gom:speed><gom:course>103.811</gom:course></extensions></trkpt>
   <trkpt lat="59.3540331463" lon="34.6487159222"><ele>169.059</ele><time>2026-08-13T23:30:33.998Z</time><hdop>4.687</hdop><vdop>4.312</vdop><extensions><gom:speed>0.409</gom:speed><gom:course>106.387</gom:course></extensions></trkpt>
   <trkpt lat="59.3539362934" lon="34.6488627732"><ele>172.064</ele><time>2026-08-13T23:31:47.000Z</time><hdop>4.687</hdop><vdop>4.75</vdop><extensions><gom:speed>2.807</gom:speed><gom:course>150.289</gom:course></extensions></trkpt>
   <trkpt lat="59.3538888519" lon="34.6490272261"><ele>170.16</ele><time>2026-08-13T23:32:12.000Z</time><hdop>4.687</hdop><vdop>4.062</vdop><extensions><gom:speed>0.31</gom:speed><gom:course>168.626</gom:course></extensions></trkpt>
   <trkpt lat="59.3538186534" lon="34.6491573971"><ele>173.834</ele><time>2026-08-13T23:32:28.000Z</time><hdop>4.687</hdop><vdop>4.937</vdop><extensions><gom:speed>1.094</gom:speed><gom:course>139.731</gom:course></extensions></trkpt>
   <trkpt lat="59.3537888977" lon="34.6493281365"><ele>171.609</ele><time>2026-08-13T23:32:48.999Z</time><hdop>4.687</hdop><vdop>4.437</vdop><extensions><gom:speed>0.504</gom:speed><gom:course>84.024</gom:course></extensions></trkpt>
   <trkpt lat="59.3537502152" lon="34.6494933438"><ele>172.894</ele><time>2026-08-13T23:32:58.999Z</time><hdop>4.687</hdop><vdop>4.562</vdop><extensions><gom:speed>1.022</gom:speed><gom:course>110.15</gom:course></extensions></trkpt>
   <trkpt lat="59.3537437611" lon="34.6496743091"><ele>173.359</ele><time>2026-08-13T23:33:10.999Z</time><hdop>4.687</hdop><vdop>5.0</vdop><extensions><gom:speed>0.447</gom:speed><gom:course>98.922</gom:course></extensions></trkpt>
   <trkpt lat="59.3537609021" lon="34.6498493232"><ele>171.185</ele><time>2026-08-13T23:33:30.000Z</time><hdop>4.687</hdop><vdop>4.875</vdop><extensions><gom:speed>0.036</gom:speed><gom:course>120.357</gom:course></extensions></trkpt>
   <trkpt lat="59.3538101458" lon="34.6500047237"><ele>166.787</ele><time>2026-08-13T23:33:52.000Z</time><hdop>4.687</hdop><vdop>4.625</vdop><extensions><gom:speed>1.025</gom:speed><gom:course>22.203</gom:course></extensions></trkpt>
   <trkpt lat="59.3537744808" lon="34.6501913048"><ele>169.178</ele><time>2026-08-13T23:34:16.000Z</time><hdop>4.687</hdop><vdop>4.687</vdop><extensions><gom:speed>0.661</gom:speed><gom:course>70.231</gom:course></extensions></trkpt>
   <trkpt lat="59.353763752" lon="34.6503713481"><ele>171.717</ele><time>2026-08-13T23:34:26.000Z</time><hdop>4.687</hdop><vdop>4.5</vdop><extensions><gom:speed>0.192</gom:speed><gom:course>69.275</gom:course></extensions></trkpt>
   <trkpt lat="59.3537652188" lon="34.6505477034"><ele>170.189</ele><time>2026-08-13T23:34:38.999Z</time><hdop>4.687</hdop><vdop>4.812</vdop><extensions><gom:speed>0.96</gom:speed><gom:course>86.969</gom:course></extensions></trkpt>
   <trkpt lat="59.3538080503" lon="34.6507129107"><ele>173.201</ele><time>2026-08-13T23:35:08.999Z</time><hdop>4.687</hdop><vdop>4.625</vdop><extensions><gom:speed>0.849</gom:speed><gom:course>66.352</gom:course></extensions></trkpt>
   <trkpt lat="59.35386379" lon="34.6508688979"><ele>171.676</ele><time>2026-08-13T23:35:21.999Z</time><hdop>4.687</hdop><vdop>4.937</vdop><extensions><gom:speed>0.64</gom:speed><gom:course>72.181</gom:course></extensions></trkpt>
   <trkpt lat="59.3538928333" lon="34.6510387991"><ele>169.367</ele><time>2026-08-13T23:35:38.000Z</time><hdop>4.687</hdop><vdop>5.187</vdop><extensions><gom:speed>0.489</gom:speed><gom:course>75.125</gom:course></extensions></trkpt>
   <trkpt lat="59.3538958927" lon="34.6512169145"><ele>171.915</ele><time>2026-08-13T23:35:53.000Z</time><hdop>4.687</hdop><vdop>4.5</vdop><extensions><gom:speed>0.752</gom:speed><gom:course>62.37</gom:course></extensions></trkpt>
   <trkpt lat="59.3539121116" lon="34.6514041662"><ele>172.545</ele><time>2026-08-13T23:36:04.000Z</time><hdop>4.687</hdop><vdop>4.937</vdop><extensions><gom:speed>0.97</gom:speed><gom:course>89.825</gom:course></extensions></trkpt>
   <trkpt lat="59.3539273248" lon="34.651585383"><ele>173.722</ele><time>2026-08-13T23:36:21.000Z</time><hdop>4.687</hdop><vdop>4.312</vdop><extensions><gom:speed>1.258</gom:speed><gom:course>84.107</gom:course></extensions></trkpt>
   <trkpt lat="59.3539083398" lon="34.651771545"><ele>171.081</ele><time>2026-08-13T23:36:38.999Z</time><hdop>4.687</hdop><vdop>4.687</vdop><extensions><gom:speed>0.346</gom:speed><gom:course>85.815</gom:course></extensions></trkpt>
   <trkpt lat="59.3538948868" lon="34.6519637421"><ele>169.731</ele><time>2026-08-13T23:36:53.999Z</time><hdop>4.687</hdop><vdop>4.625</vdop><extensions><gom:speed>0.415</gom:speed><gom:course>120.472</gom:course></extensions></trkpt>
   <trkpt lat="59.3539036878" lon="34.6521650754"><ele>171.872</ele><time>2026-08-13T23:39:45.000Z</time><hdop>4.687</hdop><vdop>5.187</vdop><extensions><gom:speed>0.016</gom:speed><gom:course>93.429</gom:course></extensions></trkpt>
   <trkpt lat="59.3538996226" lon="34.6523478009"><ele>169.295</ele><time>2026-08-13T23:41:55.000Z</time><hdop>4.687</hdop><vdop>5.25</vdop><extensions><gom:speed>0.0</gom:speed><gom:course>104.245</gom:course></extensions></trkpt>
   <trkpt lat="59.3539334436" lon="34.6525307778"><ele>170.418</ele><time>2026-08-13T23:45:45.999Z</time><hdop>4.687</hdop><vdop>4.875</vdop><extensions><gom:speed>0.625</gom:speed><gom:course>71.049</gom:course></extensions></trkpt>
   <trkpt lat="59.3539325635" lon="34.6527087256"><ele>168.755</ele><time>2026-08-13T23:45:55.999Z</time><hdop>4.687</hdop><vdop>5.0</vdop><extensions><gom:speed>0.557</gom:speed><gom:course>91.385</gom:course></extensions></trkpt>
   <trkpt lat="59.3539391852" lon="34.6528927084"><ele>167.901</ele><time>2026-08-13T23:46:09.000Z</time><hdop>4.687</hdop><vdop>5.187</vdop><extensions><gom:speed>0.61</gom:speed><gom:course>90.122</gom:course></extensions></trkpt>
   <trkpt lat="59.3539460164" lon="34.6530736737"><ele>168.654</ele><time>2026-08-13T23:46:20.000Z</time><hdop>4.687</hdop><vdop>4.812</vdop><extensions><gom:speed>0.585</gom:speed><gom:course>78.02</gom:course></extensions></trkpt>
   <trkpt lat="59.3539805499" lon="34.6532469276"><ele>168.736</ele><time>2026-08-13T23:46:32.999Z</time><hdop>4.687</hdop><vdop>5.5</vdop><extensions><gom:speed>0.81</gom:speed><gom:course>60.997</gom:course></extensions></trkpt>
   <trkpt lat="59.3540147061" lon="34.6534256298"><ele>169.672</ele><time>2026-08-13T23:46:44.999Z</time><hdop>4.687</hdop><vdop>5.312</vdop><extensions><gom:speed>0.67</gom:speed><gom:course>72.725</gom:course></extensions></trkpt>
   <trkpt lat="59.3540401452" lon="34.6536130492"><ele>169.426</ele><time>2026-08-13T23:46:56.999Z</time><hdop>4.687</hdop><vdop>5.062</vdop><extensions><gom:speed>0.725</gom:speed><gom:course>74.96</gom:course></extensions></trkpt>
   <trkpt lat="59.354053221" lon="34.6537971996"><ele>169.453</ele><time>2026-08-13T23:47:14.999Z</time><hdop>4.687</hdop><vdop>5.0</vdop><extensions><gom:speed>0.653</gom:speed><gom:course>71.148</gom:course></extensions></trkpt>
   <trkpt lat="59.354049952" lon="34.6539866306"><ele>170.578</ele><time>2026-08-13T23:47:28.999Z</time><hdop>4.687</hdop><vdop>6.0</vdop><extensions><gom:speed>0.787</gom:speed><gom:course>100.021</gom:course></extensions></trkpt>
   <trkpt lat="59.3540593398" lon="34.654171703"><ele>170.306</ele><time>2026-08-13T23:47:39.999Z</time><hdop>4.687</hdop><vdop>5.937</vdop><extensions><gom:speed>0.745</gom:speed><gom:course>81.322</gom:course></extensions></trkpt>
   <trkpt lat="59.3540592979" lon="34.6543561049"><ele>170.532</ele><time>2026-08-13T23:47:52.999Z</time><hdop>4.687</hdop><vdop>5.375</vdop><extensions><gom:speed>0.463</gom:speed><gom:course>69.714</gom:course></extensions></trkpt>
   <trkpt lat="59.3540507064" lon="34.654557522"><ele>169.727</ele><time>2026-08-13T23:48:06.000Z</time><hdop>4.687</hdop><vdop>5.062</vdop><extensions><gom:speed>1.01</gom:speed><gom:course>95.56</gom:course></extensions></trkpt>
   <trkpt lat="59.3540560289" lon="34.6547347155"><ele>169.868</ele><time>2026-08-13T23:48:18.000Z</time><hdop>4.687</hdop><vdop>5.437</vdop><extensions><gom:speed>0.814</gom:speed><gom:course>76.834</gom:course></extensions></trkpt>
   <trkpt lat="59.3540496168" lon="34.6549147587"><ele>170.634</ele><time>2026-08-13T23:48:30.999Z</time><hdop>4.687</hdop><vdop>5.312</vdop><extensions><gom:speed>0.322</gom:speed><gom:course>93.983</gom:course></extensions></trkpt>
   <trkpt lat="59.3540320148" lon="34.6550913654"><ele>169.977</ele><time>2026-08-13T23:48:44.999Z</time><hdop>4.687</hdop><vdop>5.937</vdop><extensions><gom:speed>0.723</gom:speed><gom:course>98.01</gom:course></extensions></trkpt>
   <trkpt lat="59.3540302127" lon="34.6552829757"><ele>168.688</ele><time>2026-08-13T23:48:57.999Z</time><hdop>4.687</hdop><vdop>5.562</vdop><extensions><gom:speed>0.688</gom:speed><gom:course>95.395</gom:course></extensions></trkpt>
   <trkpt lat="59.3540405224" lon="34.6554676291"><ele>168.566</ele><time>2026-08-13T23:49:33.999Z</time><hdop>4.687</hdop><vdop>5.5</vdop><extensions><gom:speed>0.705</gom:speed><gom:course>75.609</gom:course></extensions></trkpt>
   <trkpt lat="59.3540362895" lon="34.6556590717"><ele>169.575</ele><time>2026-08-13T23:49:48.999Z</time><hdop>4.687</hdop><vdop>5.625</vdop><extensions><gom:speed>0.606</gom:speed><gom:course>76.674</gom:course></extensions></trkpt>
   <trkpt lat="59.3540287039" lon="34.6558428869"><ele>170.014</ele><time>2026-08-13T23:50:01.999Z</time><hdop>4.687</hdop><vdop>5.25</vdop><extensions><gom:speed>0.737</gom:speed><gom:course>102.361</gom:course></extensions></trkpt>
   <trkpt lat="59.3540114791" lon="34.656017901"><ele>169.354</ele><time>2026-08-13T23:50:15.999Z</time><hdop>4.687</hdop><vdop>5.562</vdop><extensions><gom:speed>0.269</gom:speed><gom:course>92.539</gom:course></extensions></trkpt>
   <trkpt lat="59.3539714974" lon="34.6561961841"><ele>168.532</ele><time>2026-08-13T23:51:21.999Z</time><hdop>4.687</hdop><vdop>5.0</vdop><extensions><gom:speed>0.67</gom:speed><gom:course>107.794</gom:course></extensions></trkpt>
   <trkpt lat="59.353970324" lon="34.6563760597"><ele>170.18</ele><time>2026-08-13T23:51:36.999Z</time><hdop>4.687</hdop><vdop>5.0</vdop><extensions><gom:speed>0.456</gom:speed><gom:course>77.246</gom:course></extensions></trkpt>
   <trkpt lat="59.3539443401" lon="34.6565499842"><ele>169.637</ele><time>2026-08-13T23:51:47.999Z</time><hdop>4.687</hdop><vdop>4.687</vdop><extensions><gom:speed>0.462</gom:speed><gom:course>80.086</gom:course></extensions></trkpt>
   <trkpt lat="59.353907795" lon="34.6567151915"><ele>169.641</ele><time>2026-08-13T23:52:02.998Z</time><hdop>4.687</hdop><vdop>5.187</vdop><extensions><gom:speed>0.352</gom:speed><gom:course>118.632</gom:course></extensions></trkpt>
   <trkpt lat="59.3538991197" lon="34.6568996772"><ele>172.951</ele><time>2026-08-13T23:52:15.999Z</time><hdop>4.687</hdop><vdop>4.875</vdop><extensions><gom:speed>0.346</gom:speed><gom:course>71.258</gom:course></extensions></trkpt>
   <trkpt lat="59.3538886842" lon="34.6570844982"><ele>170.947</ele><time>2026-08-13T23:52:29.999Z</time><hdop>4.687</hdop><vdop>4.75</vdop><extensions><gom:speed>0.484</gom:speed><gom:course>100.394</gom:course></extensions></trkpt>
   <trkpt lat="59.353877201" lon="34.657269403"><ele>169.056</ele><time>2026-08-13T23:52:42.999Z</time><hdop>4.687</hdop><vdop>4.937</vdop><extensions><gom:speed>0.684</gom:speed><gom:course>95.428</gom:course></extensions></trkpt>
   <trkpt lat="59.3538733034" lon="34.6574584987"><ele>169.714</ele><time>2026-08-13T23:53:01.999Z</time><hdop>4.687</hdop><vdop>4.812</vdop><extensions><gom:speed>0.595</gom:speed><gom:course>90.528</gom:course></extensions></trkpt>
   <trkpt lat="59.3538885585" lon="34.6576432359"><ele>170.515</ele><time>2026-08-13T23:53:15.999Z</time><hdop>4.687</hdop><vdop>4.75</vdop><extensions><gom:speed>0.154</gom:speed><gom:course>77.169</gom:course></extensions></trkpt>
   <trkpt lat="59.3538648377" lon="34.6578180824"><ele>171.52</ele><time>2026-08-13T23:53:23.999Z</time><hdop>4.687</hdop><vdop>4.625</vdop><extensions><gom:speed>0.372</gom:speed><gom:course>89.55</gom:course></extensions></trkpt>
   <trkpt lat="59.3538697411" lon="34.6580174878"><ele>172.108</ele><time>2026-08-13T23:53:37.999Z</time><hdop>4.687</hdop><vdop>4.687</vdop><extensions><gom:speed>0.67</gom:speed><gom:course>90.484</gom:course></extensions></trkpt>
   <trkpt lat="59.353815594" lon="34.6581815217"><ele>172.37</ele><time>2026-08-13T23:53:49.999Z</time><hdop>4.687</hdop><vdop>4.25</vdop><extensions><gom:speed>0.384</gom:speed><gom:course>124.224</gom:course></extensions></trkpt>
   <trkpt lat="59.3537725949" lon="34.6583602239"><ele>173.383</ele><time>2026-08-13T23:54:01.998Z</time><hdop>4.687</hdop><vdop>4.625</vdop><extensions><gom:speed>0.626</gom:speed><gom:course>120.878</gom:course></extensions></trkpt>
   <trkpt lat="59.3537360079" lon="34.6585293707"><ele>171.367</ele><time>2026-08-13T23:54:13.998Z</time><hdop>4.687</hdop><vdop>4.75</vdop><extensions><gom:speed>0.462</gom:speed><gom:course>103.525</gom:course></extensions></trkpt>
   <trkpt lat="59.3536997142" lon="34.6586981822"><ele>170.406</ele><time>2026-08-13T23:54:24.999Z</time><hdop>4.687</hdop><vdop>5.0</vdop><extensions><gom:speed>0.655</gom:speed><gom:course>104.915</gom:course></extensions></trkpt>
   <trkpt lat="59.3536487941" lon="34.6588785607"><ele>171.667</ele><time>2026-08-13T23:54:36.999Z</time><hdop>4.687</hdop><vdop>4.875</vdop><extensions><gom:speed>0.759</gom:speed><gom:course>122.867</gom:course></extensions></trkpt>
   <trkpt lat="59.3535869776" lon="34.6590129227"><ele>171.3</ele><time>2026-08-13T23:54:46.999Z</time><hdop>4.687</hdop><vdop>4.875</vdop><extensions><gom:speed>0.356</gom:speed><gom:course>119.516</gom:course></extensions></trkpt>
   <trkpt lat="59.3535262088" lon="34.6591495477"><ele>172.153</ele><time>2026-08-13T23:55:11.999Z</time><hdop>4.687</hdop><vdop>4.875</vdop><extensions><gom:speed>0.416</gom:speed><gom:course>133.474</gom:course></extensions></trkpt>
   <trkpt lat="59.3534568067" lon="34.6592754439"><ele>172.278</ele><time>2026-08-13T23:55:25.999Z</time><hdop>4.687</hdop><vdop>4.937</vdop><extensions><gom:speed>0.776</gom:speed><gom:course>135.04</gom:course></extensions></trkpt>
   <trkpt lat="59.353369551" lon="34.6593854144"><ele>172.436</ele><time>2026-08-13T23:55:34.999Z</time><hdop>4.687</hdop><vdop>4.5</vdop><extensions><gom:speed>0.824</gom:speed><gom:course>142.478</gom:course></extensions></trkpt>
   <trkpt lat="59.3533074831" lon="34.6595147472"><ele>171.904</ele><time>2026-08-13T23:55:47.999Z</time><hdop>4.687</hdop><vdop>4.812</vdop><extensions><gom:speed>0.644</gom:speed><gom:course>122.669</gom:course></extensions></trkpt>
   <trkpt lat="59.3532428586" lon="34.6596491091"><ele>171.356</ele><time>2026-08-13T23:55:57.999Z</time><hdop>4.687</hdop><vdop>4.875</vdop><extensions><gom:speed>0.686</gom:speed><gom:course>130.596</gom:course></extensions></trkpt>
   <trkpt lat="59.3531718639" lon="34.6597766817"><ele>171.271</ele><time>2026-08-13T23:56:08.998Z</time><hdop>4.687</hdop><vdop>4.562</vdop><extensions><gom:speed>0.697</gom:speed><gom:course>145.587</gom:course></extensions></trkpt>
   <trkpt lat="59.3531238356" lon="34.6599294838"><ele>171.049</ele><time>2026-08-13T23:56:20.998Z</time><hdop>4.687</hdop><vdop>4.812</vdop><extensions><gom:speed>0.682</gom:speed><gom:course>122.362</gom:course></extensions></trkpt>
   <trkpt lat="59.353075011" lon="34.6600781787"><ele>170.805</ele><time>2026-08-13T23:56:31.999Z</time><hdop>4.687</hdop><vdop>4.812</vdop><extensions><gom:speed>0.756</gom:speed><gom:course>122.675</gom:course></extensions></trkpt>
   <trkpt lat="59.3530289524" lon="34.6602569647"><ele>170.183</ele><time>2026-08-13T23:56:46.999Z</time><hdop>4.687</hdop><vdop>5.125</vdop><extensions><gom:speed>1.047</gom:speed><gom:course>117.901</gom:course></extensions></trkpt>
   <trkpt lat="59.3529779904" lon="34.660403648"><ele>169.388</ele><time>2026-08-13T23:56:59.999Z</time><hdop>4.687</hdop><vdop>5.5</vdop><extensions><gom:speed>0.469</gom:speed><gom:course>124.965</gom:course></extensions></trkpt>
   <trkpt lat="59.3529255616" lon="34.6605561987"><ele>168.484</ele><time>2026-08-13T23:57:11.999Z</time><hdop>4.687</hdop><vdop>5.687</vdop><extensions><gom:speed>0.619</gom:speed><gom:course>129.344</gom:course></extensions></trkpt>
   <trkpt lat="59.3528609791" lon="34.6607007865"><ele>168.202</ele><time>2026-08-13T23:57:30.999Z</time><hdop>4.687</hdop><vdop>5.75</vdop><extensions><gom:speed>0.979</gom:speed><gom:course>131.81</gom:course></extensions></trkpt>
   <trkpt lat="59.3528205783" lon="34.6608590368"><ele>167.316</ele><time>2026-08-13T23:57:45.999Z</time><hdop>4.687</hdop><vdop>5.875</vdop><extensions><gom:speed>0.687</gom:speed><gom:course>105.843</gom:course></extensions></trkpt>
   <trkpt lat="59.352759097" lon="34.6609985955"><ele>167.203</ele><time>2026-08-13T23:57:58.999Z</time><hdop>4.687</hdop><vdop>5.625</vdop><extensions><gom:speed>0.687</gom:speed><gom:course>121.34</gom:course></extensions></trkpt>
   <trkpt lat="59.3527075064" lon="34.661152152"><ele>166.522</ele><time>2026-08-13T23:58:12.998Z</time><hdop>4.687</hdop><vdop>5.375</vdop><extensions><gom:speed>0.63</gom:speed><gom:course>114.138</gom:course></extensions></trkpt>
   <trkpt lat="59.3526375175" lon="34.6612917945"><ele>166.572</ele><time>2026-08-13T23:58:25.998Z</time><hdop>4.687</hdop><vdop>4.687</vdop><extensions><gom:speed>0.603</gom:speed><gom:course>114.265</gom:course></extensions></trkpt>
   <trkpt lat="59.3525584762" lon="34.6613798883"><ele>166.97</ele><time>2026-08-13T23:58:36.999Z</time><hdop>4.687</hdop><vdop>5.437</vdop><extensions><gom:speed>0.563</gom:speed><gom:course>148.004</gom:course></extensions></trkpt>
   <trkpt lat="59.3524731903" lon="34.6614608575"><ele>166.481</ele><time>2026-08-13T23:58:46.999Z</time><hdop>4.687</hdop><vdop>5.062</vdop><extensions><gom:speed>0.584</gom:speed><gom:course>147.317</gom:course></extensions></trkpt>
   <trkpt lat="59.3523935622" lon="34.6615438383"><ele>166.51</ele><time>2026-08-13T23:58:59.999Z</time><hdop>4.687</hdop><vdop>4.812</vdop><extensions><gom:speed>1.238</gom:speed><gom:course>148.487</gom:course></extensions></trkpt>
   <trkpt lat="59.3523192148" lon="34.6616498694"><ele>165.184</ele><time>2026-08-13T23:59:14.999Z</time><hdop>4.687</hdop><vdop>5.25</vdop><extensions><gom:speed>0.464</gom:speed><gom:course>107.283</gom:course></extensions></trkpt>
   <trkpt lat="59.3522264271" lon="34.6617168408"><ele>167.313</ele><time>2026-08-13T23:59:22.999Z</time><hdop>4.687</hdop><vdop>5.187</vdop><extensions><gom:speed>1.427</gom:speed><gom:course>174.921</gom:course></extensions></trkpt>
   <trkpt lat="59.3521957074" lon="34.6618993148"><ele>163.853</ele><time>2026-08-13T23:59:41.999Z</time><hdop>4.687</hdop><vdop>5.687</vdop><extensions><gom:speed>0.955</gom:speed><gom:course>81.14</gom:course></extensions></trkpt>
   <trkpt lat="59.3521330527" lon="34.6620323356"><ele>166.428</ele><time>2026-08-13T23:59:55.999Z</time><hdop>4.687</hdop><vdop>5.125</vdop><extensions><gom:speed>0.841</gom:speed><gom:course>119.533</gom:course></extensions></trkpt>
   <trkpt lat="59.3520720743" lon="34.6621732354"><ele>166.269</ele><time>2026-08-14T00:00:07.998Z</time><hdop>4.687</hdop><vdop>5.375</vdop><extensions><gom:speed>0.689</gom:speed><gom:course>124.427</gom:course></extensions></trkpt>
   <trkpt lat="59.3519945836" lon="34.6622868102"><ele>166.581</ele><time>2026-08-14T00:00:19.998Z</time><hdop>4.687</hdop><vdop>5.187</vdop><extensions><gom:speed>0.638</gom:speed><gom:course>134.458</gom:course></extensions></trkpt>
   <trkpt lat="59.3519325576" lon="34.6624201663"><ele>166.748</ele><time>2026-08-14T00:00:30.998Z</time><hdop>4.687</hdop><vdop>5.562</vdop><extensions><gom:speed>0.594</gom:speed><gom:course>139.369</gom:course></extensions></trkpt>
   <trkpt lat="59.351880003" lon="34.6625737228"><ele>169.388</ele><time>2026-08-14T00:01:27.999Z</time><hdop>4.687</hdop><vdop>5.0</vdop><extensions><gom:speed>0.738</gom:speed><gom:course>117.615</gom:course></extensions></trkpt>
   <trkpt lat="59.3518228804" lon="34.6627214957"><ele>169.039</ele><time>2026-08-14T00:01:48.999Z</time><hdop>4.687</hdop><vdop>6.062</vdop><extensions><gom:speed>0.703</gom:speed><gom:course>125.685</gom:course></extensions></trkpt>
   <trkpt lat="59.3517760255" lon="34.6628824283"><ele>165.671</ele><time>2026-08-14T00:02:02.998Z</time><hdop>4.687</hdop><vdop>5.625</vdop><extensions><gom:speed>0.596</gom:speed><gom:course>122.883</gom:course></extensions></trkpt>
   <trkpt lat="59.3517238063" lon="34.6630307041"><ele>165.738</ele><time>2026-08-14T00:02:13.998Z</time><hdop>4.687</hdop><vdop>5.875</vdop><extensions><gom:speed>1.047</gom:speed><gom:course>130.893</gom:course></extensions></trkpt>
   <trkpt lat="59.3516816034" lon="34.6632065565"><ele>167.092</ele><time>2026-08-14T00:02:21.998Z</time><hdop>4.687</hdop><vdop>5.937</vdop><extensions><gom:speed>1.306</gom:speed><gom:course>106.904</gom:course></extensions></trkpt>
   <trkpt lat="59.3516153863" lon="34.6633472886"><ele>166.028</ele><time>2026-08-14T00:02:47.999Z</time><hdop>4.687</hdop><vdop>4.937</vdop><extensions><gom:speed>0.777</gom:speed><gom:course>147.784</gom:course></extensions></trkpt>
   <trkpt lat="59.3515646758" lon="34.6634949777"><ele>165.214</ele><time>2026-08-14T00:03:02.999Z</time><hdop>4.687</hdop><vdop>5.437</vdop><extensions><gom:speed>0.735</gom:speed><gom:course>118.588</gom:course></extensions></trkpt>
   <trkpt lat="59.3514793481" lon="34.6635653857"><ele>165.196</ele><time>2026-08-14T00:03:18.999Z</time><hdop>4.687</hdop><vdop>5.5</vdop><extensions><gom:speed>0.658</gom:speed><gom:course>146.296</gom:course></extensions></trkpt>
   <trkpt lat="59.3513874824" lon="34.6636139169"><ele>166.723</ele><time>2026-08-14T00:03:30.999Z</time><hdop>4.687</hdop><vdop>5.187</vdop><extensions><gom:speed>0.77</gom:speed><gom:course>152.388</gom:course></extensions></trkpt>
   <trkpt lat="59.3512951138" lon="34.6636679802"><ele>167.12</ele><time>2026-08-14T00:03:42.999Z</time><hdop>4.687</hdop><vdop>5.5</vdop><extensions><gom:speed>0.887</gom:speed><gom:course>173.811</gom:course></extensions></trkpt>
   <trkpt lat="59.3512202215" lon="34.6637725026"><ele>166.979</ele><time>2026-08-14T00:03:52.999Z</time><hdop>4.687</hdop><vdop>5.5</vdop><extensions><gom:speed>1.042</gom:speed><gom:course>131.101</gom:course></extensions></trkpt>
   <trkpt lat="59.3511587403" lon="34.6639301662"><ele>166.372</ele><time>2026-08-14T00:04:04.998Z</time><hdop>4.687</hdop><vdop>5.625</vdop><extensions><gom:speed>1.086</gom:speed><gom:course>123.076</gom:course></extensions></trkpt>
   <trkpt lat="59.3511047608" lon="34.6640854828"><ele>167.062</ele><time>2026-08-14T00:04:16.998Z</time><hdop>4.687</hdop><vdop>5.812</vdop><extensions><gom:speed>0.62</gom:speed><gom:course>116.973</gom:course></extensions></trkpt>
   <trkpt lat="59.3510726581" lon="34.6642541267"><ele>165.898</ele><time>2026-08-14T00:04:27.998Z</time><hdop>4.687</hdop><vdop>5.5</vdop><extensions><gom:speed>0.651</gom:speed><gom:course>108.722</gom:course></extensions></trkpt>
   <trkpt lat="59.3510227439" lon="34.6644025702"><ele>167.275</ele><time>2026-08-14T00:04:39.998Z</time><hdop>4.687</hdop><vdop>5.437</vdop><extensions><gom:speed>0.79</gom:speed><gom:course>110.837</gom:course></extensions></trkpt>
   <trkpt lat="59.3509659984" lon="34.6645584736"><ele>167.092</ele><time>2026-08-14T00:04:50.999Z</time><hdop>4.687</hdop><vdop>5.687</vdop><extensions><gom:speed>0.669</gom:speed><gom:course>123.614</gom:course></extensions></trkpt>
   <trkpt lat="59.3509216581" lon="34.6647220884"><ele>167.724</ele><time>2026-08-14T00:05:03.999Z</time><hdop>4.687</hdop><vdop>5.062</vdop><extensions><gom:speed>0.45</gom:speed><gom:course>113.408</gom:course></extensions></trkpt>
   <trkpt lat="59.3509102168" lon="34.6649053168"><ele>168.288</ele><time>2026-08-14T00:05:15.000Z</time><hdop>4.687</hdop><vdop>5.562</vdop><extensions><gom:speed>0.591</gom:speed><gom:course>89.688</gom:course></extensions></trkpt>
   <trkpt lat="59.3509191017" lon="34.6650878746"><ele>169.091</ele><time>2026-08-14T00:05:28.000Z</time><hdop>4.687</hdop><vdop>4.375</vdop><extensions><gom:speed>0.668</gom:speed><gom:course>67.347</gom:course></extensions></trkpt>
   <trkpt lat="59.3509359912" lon="34.6652715221"><ele>169.63</ele><time>2026-08-14T00:05:41.000Z</time><hdop>4.687</hdop><vdop>3.75</vdop><extensions><gom:speed>0.587</gom:speed><gom:course>54.042</gom:course></extensions></trkpt>
   <trkpt lat="59.3509255976" lon="34.6654607855"><ele>170.439</ele><time>2026-08-14T00:05:52.000Z</time><hdop>4.687</hdop><vdop>4.375</vdop><extensions><gom:speed>0.677</gom:speed><gom:course>95.269</gom:course></extensions></trkpt>
   <trkpt lat="59.3509225801" lon="34.6656392362"><ele>171.964</ele><time>2026-08-14T00:06:03.999Z</time><hdop>4.687</hdop><vdop>3.625</vdop><extensions><gom:speed>0.373</gom:speed><gom:course>81.245</gom:course></extensions></trkpt>
   <trkpt lat="59.3508945008" lon="34.6658160105"><ele>171.651</ele><time>2026-08-14T00:06:11.999Z</time><hdop>4.687</hdop><vdop>3.812</vdop><extensions><gom:speed>0.528</gom:speed><gom:course>101.224</gom:course></extensions></trkpt>
   <trkpt lat="59.3508787009" lon="34.6660013344"><ele>171.657</ele><time>2026-08-14T00:06:23.999Z</time><hdop>4.687</hdop><vdop>3.812</vdop><extensions><gom:speed>0.526</gom:speed><gom:course>87.227</gom:course></extensions></trkpt>
   <trkpt lat="59.3508722468" lon="34.6661787793"><ele>169.023</ele><time>2026-08-14T00:06:33.999Z</time><hdop>4.687</hdop><vdop>3.375</vdop><extensions><gom:speed>0.376</gom:speed><gom:course>87.859</gom:course></extensions></trkpt>
   <trkpt lat="59.3508747614" lon="34.6663558889"><ele>166.957</ele><time>2026-08-14T00:06:44.999Z</time><hdop>4.687</hdop><vdop>3.812</vdop><extensions><gom:speed>0.564</gom:speed><gom:course>46.807</gom:course></extensions></trkpt>
   <trkpt lat="59.3508776951" lon="34.6665371057"><ele>169.074</ele><time>2026-08-14T00:06:58.000Z</time><hdop>4.687</hdop><vdop>4.25</vdop><extensions><gom:speed>0.319</gom:speed><gom:course>47.208</gom:course></extensions></trkpt>
   <trkpt lat="59.3508686007" lon="34.6667134609"><ele>168.584</ele><time>2026-08-14T00:07:07.000Z</time><hdop>4.687</hdop><vdop>3.625</vdop><extensions><gom:speed>0.55</gom:speed><gom:course>70.121</gom:course></extensions></trkpt>
   <trkpt lat="59.3508455085" lon="34.6669161353"><ele>168.14</ele><time>2026-08-14T00:07:21.000Z</time><hdop>4.687</hdop><vdop>4.5</vdop><extensions><gom:speed>0.565</gom:speed><gom:course>100.57</gom:course></extensions></trkpt>
   <trkpt lat="59.3508168424" lon="34.667095089"><ele>166.867</ele><time>2026-08-14T00:07:37.000Z</time><hdop>4.687</hdop><vdop>4.125</vdop><extensions><gom:speed>0.604</gom:speed><gom:course>98.532</gom:course></extensions></trkpt>
   <trkpt lat="59.3507526371" lon="34.667226601"><ele>166.58</ele><time>2026-08-14T00:07:52.000Z</time><hdop>4.687</hdop><vdop>5.687</vdop><extensions><gom:speed>0.583</gom:speed><gom:course>126.85</gom:course></extensions></trkpt>
   <trkpt lat="59.3506904433" lon="34.6673685067"><ele>166.59</ele><time>2026-08-14T00:08:01.999Z</time><hdop>4.687</hdop><vdop>5.437</vdop><extensions><gom:speed>0.755</gom:speed><gom:course>120.455</gom:course></extensions></trkpt>
   <trkpt lat="59.3506412416" lon="34.6675166987"><ele>167.216</ele><time>2026-08-14T00:08:13.999Z</time><hdop>4.687</hdop><vdop>5.187</vdop><extensions><gom:speed>0.526</gom:speed><gom:course>107.195</gom:course></extensions></trkpt>
   <trkpt lat="59.3505947639" lon="34.6676720154"><ele>170.09</ele><time>2026-08-14T00:08:24.999Z</time><hdop>4.687</hdop><vdop>5.0</vdop><extensions><gom:speed>0.719</gom:speed><gom:course>104.036</gom:course></extensions></trkpt>
   <trkpt lat="59.3505506332" lon="34.6678263262"><ele>168.475</ele><time>2026-08-14T00:08:34.999Z</time><hdop>4.687</hdop><vdop>5.562</vdop><extensions><gom:speed>0.739</gom:speed><gom:course>115.116</gom:course></extensions></trkpt>
   <trkpt lat="59.3505191591" lon="34.6679916173"><ele>170.459</ele><time>2026-08-14T00:08:47.999Z</time><hdop>4.687</hdop><vdop>4.75</vdop><extensions><gom:speed>0.431</gom:speed><gom:course>101.795</gom:course></extensions></trkpt>
   <trkpt lat="59.3504845838" lon="34.6681563217"><ele>172.284</ele><time>2026-08-14T00:08:57.999Z</time><hdop>4.687</hdop><vdop>4.375</vdop><extensions><gom:speed>0.381</gom:speed><gom:course>86.842</gom:course></extensions></trkpt>
   <trkpt lat="59.350481692" lon="34.6683409751"><ele>171.463</ele><time>2026-08-14T00:09:08.000Z</time><hdop>4.687</hdop><vdop>4.375</vdop><extensions><gom:speed>0.448</gom:speed><gom:course>82.14</gom:course></extensions></trkpt>
   <trkpt lat="59.3504943487" lon="34.6685400453"><ele>172.723</ele><time>2026-08-14T00:09:19.000Z</time><hdop>4.687</hdop><vdop>3.937</vdop><extensions><gom:speed>0.842</gom:speed><gom:course>72.225</gom:course></extensions></trkpt>
   <trkpt lat="59.3505069635" lon="34.6687280513"><ele>172.851</ele><time>2026-08-14T00:09:31.000Z</time><hdop>4.687</hdop><vdop>3.25</vdop><extensions><gom:speed>0.388</gom:speed><gom:course>46.873</gom:course></extensions></trkpt>
   <trkpt lat="59.3505003837" lon="34.6689096872"><ele>172.772</ele><time>2026-08-14T00:09:40.000Z</time><hdop>4.687</hdop><vdop>4.0</vdop><extensions><gom:speed>0.246</gom:speed><gom:course>74.356</gom:course></extensions></trkpt>
   <trkpt lat="59.3505112802" lon="34.6690974418"><ele>171.929</ele><time>2026-08-14T00:09:57.999Z</time><hdop>4.687</hdop><vdop>3.625</vdop><extensions><gom:speed>0.479</gom:speed><gom:course>55.591</gom:course></extensions></trkpt>
   <trkpt lat="59.3505142557" lon="34.6692795806"><ele>173.396</ele><time>2026-08-14T00:10:11.999Z</time><hdop>4.687</hdop><vdop>3.375</vdop><extensions><gom:speed>0.374</gom:speed><gom:course>89.029</gom:course></extensions></trkpt>
   <trkpt lat="59.3505253618" lon="34.6694721967"><ele>174.7</ele><time>2026-08-14T00:10:21.999Z</time><hdop>4.687</hdop><vdop>3.562</vdop><extensions><gom:speed>0.864</gom:speed><gom:course>64.957</gom:course></extensions></trkpt>
   <trkpt lat="59.3505167703" lon="34.6696584426"><ele>171.264</ele><time>2026-08-14T00:10:34.999Z</time><hdop>4.687</hdop><vdop>4.0</vdop><extensions><gom:speed>0.42</gom:speed><gom:course>57.393</gom:course></extensions></trkpt>
   <trkpt lat="59.3504788422" lon="34.669826835"><ele>171.103</ele><time>2026-08-14T00:10:48.999Z</time><hdop>4.687</hdop><vdop>4.687</vdop><extensions><gom:speed>0.564</gom:speed><gom:course>98.125</gom:course></extensions></trkpt>
   <trkpt lat="59.3504607792" lon="34.6700193674"><ele>171.83</ele><time>2026-08-14T00:10:59.999Z</time><hdop>4.687</hdop><vdop>4.562</vdop><extensions><gom:speed>0.757</gom:speed><gom:course>81.964</gom:course></extensions></trkpt>
   <trkpt lat="59.3504515172" lon="34.6702120673"><ele>172.659</ele><time>2026-08-14T00:11:18.000Z</time><hdop>4.687</hdop><vdop>4.625</vdop><extensions><gom:speed>0.752</gom:speed><gom:course>101.625</gom:course></extensions></trkpt>
   <trkpt lat="59.3504389024" lon="34.6703951281"><ele>173.207</ele><time>2026-08-14T00:11:28.000Z</time><hdop>4.687</hdop><vdop>4.687</vdop><extensions><gom:speed>0.445</gom:speed><gom:course>82.233</gom:course></extensions></trkpt>
   <trkpt lat="59.3504261619" lon="34.6705786917"><ele>170.942</ele><time>2026-08-14T00:11:38.000Z</time><hdop>4.687</hdop><vdop>5.0</vdop><extensions><gom:speed>0.836</gom:speed><gom:course>102.443</gom:course></extensions></trkpt>
   <trkpt lat="59.3504215519" lon="34.6707813662"><ele>168.741</ele><time>2026-08-14T00:11:48.999Z</time><hdop>4.687</hdop><vdop>4.562</vdop><extensions><gom:speed>0.919</gom:speed><gom:course>70.643</gom:course></extensions></trkpt>
   <trkpt lat="59.3504675266" lon="34.6709377725"><ele>170.065</ele><time>2026-08-14T00:11:59.999Z</time><hdop>4.687</hdop><vdop>4.687</vdop><extensions><gom:speed>0.657</gom:speed><gom:course>50.362</gom:course></extensions></trkpt>
   <trkpt lat="59.3504894872" lon="34.671124186"><ele>169.588</ele><time>2026-08-14T00:12:09.999Z</time><hdop>4.687</hdop><vdop>4.625</vdop><extensions><gom:speed>0.528</gom:speed><gom:course>62.749</gom:course></extensions></trkpt>
   <trkpt lat="59.3505177342" lon="34.6713037264"><ele>168.781</ele><time>2026-08-14T00:12:19.999Z</time><hdop>4.687</hdop><vdop>5.125</vdop><extensions><gom:speed>0.752</gom:speed><gom:course>64.199</gom:course></extensions></trkpt>
   <trkpt lat="59.3505561652" lon="34.671472035"><ele>168.276</ele><time>2026-08-14T00:12:29.999Z</time><hdop>4.687</hdop><vdop>6.125</vdop><extensions><gom:speed>0.597</gom:speed><gom:course>55.976</gom:course></extensions></trkpt>
   <trkpt lat="59.3506007151" lon="34.6716276031"><ele>167.645</ele><time>2026-08-14T00:12:38.999Z</time><hdop>4.687</hdop><vdop>5.125</vdop><extensions><gom:speed>0.65</gom:speed><gom:course>44.704</gom:course></extensions></trkpt>
   <trkpt lat="59.35064011" lon="34.6717878651"><ele>168.443</ele><time>2026-08-14T00:12:48.999Z</time><hdop>4.687</hdop><vdop>5.312</vdop><extensions><gom:speed>0.512</gom:speed><gom:course>44.962</gom:course></extensions></trkpt>
   <trkpt lat="59.3506406548" lon="34.6719682437"><ele>169.133</ele><time>2026-08-14T00:12:59.999Z</time><hdop>4.687</hdop><vdop>4.25</vdop><extensions><gom:speed>0.728</gom:speed><gom:course>82.354</gom:course></extensions></trkpt>
   <trkpt lat="59.3506457259" lon="34.6721577585"><ele>167.894</ele><time>2026-08-14T00:13:12.999Z</time><hdop>4.687</hdop><vdop>5.125</vdop><extensions><gom:speed>0.147</gom:speed><gom:course>4.751</gom:course></extensions></trkpt>
   <trkpt lat="59.3506472765" lon="34.6723421604"><ele>170.282</ele><time>2026-08-14T00:13:23.000Z</time><hdop>4.687</hdop><vdop>5.0</vdop><extensions><gom:speed>0.216</gom:speed><gom:course>4.751</gom:course></extensions></trkpt>
   <trkpt lat="59.3506609809" lon="34.672526646"><ele>169.254</ele><time>2026-08-14T00:13:36.000Z</time><hdop>4.687</hdop><vdop>5.687</vdop><extensions><gom:speed>0.527</gom:speed><gom:course>78.157</gom:course></extensions></trkpt>
   <trkpt lat="59.3506688599" lon="34.6727346849"><ele>169.254</ele><time>2026-08-14T00:13:48.999Z</time><hdop>4.687</hdop><vdop>3.937</vdop><extensions><gom:speed>1.029</gom:speed><gom:course>88.133</gom:course></extensions></trkpt>
   <trkpt lat="59.3506752302" lon="34.6729270496"><ele>169.692</ele><time>2026-08-14T00:13:59.999Z</time><hdop>4.687</hdop><vdop>4.375</vdop><extensions><gom:speed>0.707</gom:speed><gom:course>74.191</gom:course></extensions></trkpt>
   <trkpt lat="59.3506671836" lon="34.6731126249"><ele>170.916</ele><time>2026-08-14T00:14:08.999Z</time><hdop>4.687</hdop><vdop>5.5</vdop><extensions><gom:speed>0.999</gom:speed><gom:course>92.709</gom:course></extensions></trkpt>
   <trkpt lat="59.3506867553" lon="34.6732922491"><ele>169.643</ele><time>2026-08-14T00:14:19.999Z</time><hdop>4.687</hdop><vdop>4.625</vdop><extensions><gom:speed>0.857</gom:speed><gom:course>69.582</gom:course></extensions></trkpt>
   <trkpt lat="59.3507122363" lon="34.6734663412"><ele>170.314</ele><time>2026-08-14T00:14:32.999Z</time><hdop>4.687</hdop><vdop>5.125</vdop><extensions><gom:speed>0.403</gom:speed><gom:course>82.612</gom:course></extensions></trkpt>
   <trkpt lat="59.3507372982" lon="34.6736390922"><ele>170.576</ele><time>2026-08-14T00:14:43.999Z</time><hdop>4.687</hdop><vdop>4.375</vdop><extensions><gom:speed>0.407</gom:speed><gom:course>41.677</gom:course></extensions></trkpt>
   <trkpt lat="59.3507506254" lon="34.6738149446"><ele>169.711</ele><time>2026-08-14T00:14:52.999Z</time><hdop>4.687</hdop><vdop>4.062</vdop><extensions><gom:speed>0.689</gom:speed><gom:course>75.015</gom:course></extensions></trkpt>
   <trkpt lat="59.3507520084" lon="34.6739999332"><ele>169.241</ele><time>2026-08-14T00:15:01.999Z</time><hdop>4.687</hdop><vdop>4.437</vdop><extensions><gom:speed>0.662</gom:speed><gom:course>76.707</gom:course></extensions></trkpt>
   <trkpt lat="59.3507798782" lon="34.6741811499"><ele>169.913</ele><time>2026-08-14T00:15:11.999Z</time><hdop>4.687</hdop><vdop>4.125</vdop><extensions><gom:speed>0.667</gom:speed><gom:course>74.384</gom:course></extensions></trkpt>
   <trkpt lat="59.3507982346" lon="34.6743580919"><ele>170.219</ele><time>2026-08-14T00:15:24.000Z</time><hdop>4.687</hdop><vdop>4.0</vdop><extensions><gom:speed>0.568</gom:speed><gom:course>66.38</gom:course></extensions></trkpt>
   <trkpt lat="59.3507921996" lon="34.6745496184"><ele>167.933</ele><time>2026-08-14T00:15:37.000Z</time><hdop>4.687</hdop><vdop>4.5</vdop><extensions><gom:speed>0.633</gom:speed><gom:course>72.307</gom:course></extensions></trkpt>
   <trkpt lat="59.35075775" lon="34.6747223694"><ele>166.883</ele><time>2026-08-14T00:15:47.999Z</time><hdop>4.687</hdop><vdop>5.687</vdop><extensions><gom:speed>0.578</gom:speed><gom:course>116.621</gom:course></extensions></trkpt>
   <trkpt lat="59.3507064528" lon="34.6748760935"><ele>166.583</ele><time>2026-08-14T00:16:00.999Z</time><hdop>4.687</hdop><vdop>5.25</vdop><extensions><gom:speed>0.63</gom:speed><gom:course>125.3</gom:course></extensions></trkpt>
   <trkpt lat="59.3506394395" lon="34.6750230283"><ele>168.116</ele><time>2026-08-14T00:16:11.999Z</time><hdop>4.687</hdop><vdop>5.875</vdop><extensions><gom:speed>0.619</gom:speed><gom:course>113.303</gom:course></extensions></trkpt>
   <trkpt lat="59.3505735996" lon="34.6751687057"><ele>170.157</ele><time>2026-08-14T00:16:22.999Z</time><hdop>4.687</hdop><vdop>5.375</vdop><extensions><gom:speed>0.766</gom:speed><gom:course>148.74</gom:course></extensions></trkpt>
   <trkpt lat="59.3505203326" lon="34.6753263693"><ele>168.781</ele><time>2026-08-14T00:16:33.999Z</time><hdop>4.687</hdop><vdop>5.75</vdop><extensions><gom:speed>0.503</gom:speed><gom:course>125.592</gom:course></extensions></trkpt>
   <trkpt lat="59.3504653892" lon="34.6754813507"><ele>168.946</ele><time>2026-08-14T00:16:43.999Z</time><hdop>4.687</hdop><vdop>5.562</vdop><extensions><gom:speed>0.81</gom:speed><gom:course>120.972</gom:course></extensions></trkpt>
   <trkpt lat="59.3504282574" lon="34.6756575383"><ele>169.987</ele><time>2026-08-14T00:16:53.999Z</time><hdop>4.687</hdop><vdop>4.875</vdop><extensions><gom:speed>0.659</gom:speed><gom:course>86.145</gom:course></extensions></trkpt>
   <trkpt lat="59.3504592285" lon="34.6758421078"><ele>170.571</ele><time>2026-08-14T00:17:04.999Z</time><hdop>4.687</hdop><vdop>3.687</vdop><extensions><gom:speed>0.401</gom:speed><gom:course>35.321</gom:course></extensions></trkpt>
   <trkpt lat="59.3504068835" lon="34.6760054711"><ele>168.633</ele><time>2026-08-14T00:17:12.999Z</time><hdop>4.687</hdop><vdop>4.0</vdop><extensions><gom:speed>0.589</gom:speed><gom:course>117.006</gom:course></extensions></trkpt>
   <trkpt lat="59.3503519821" lon="34.6761638891"><ele>168.391</ele><time>2026-08-14T00:17:22.999Z</time><hdop>4.687</hdop><vdop>4.25</vdop><extensions><gom:speed>0.827</gom:speed><gom:course>122.845</gom:course></extensions></trkpt>
   <trkpt lat="59.3503276746" lon="34.6763463631"><ele>166.255</ele><time>2026-08-14T00:17:43.999Z</time><hdop>4.687</hdop><vdop>4.437</vdop><extensions><gom:speed>0.881</gom:speed><gom:course>124.01</gom:course></extensions></trkpt>
   <trkpt lat="59.3503054206" lon="34.6765224669"><ele>166.029</ele><time>2026-08-14T00:17:53.999Z</time><hdop>4.687</hdop><vdop>5.187</vdop><extensions><gom:speed>0.74</gom:speed><gom:course>99.367</gom:course></extensions></trkpt>
   <trkpt lat="59.350289495" lon="34.6767017558"><ele>168.285</ele><time>2026-08-14T00:18:04.999Z</time><hdop>4.687</hdop><vdop>5.312</vdop><extensions><gom:speed>0.762</gom:speed><gom:course>120.197</gom:course></extensions></trkpt>
   <trkpt lat="59.3502710548" lon="34.6768776082"><ele>169.705</ele><time>2026-08-14T00:18:16.999Z</time><hdop>4.687</hdop><vdop>5.437</vdop><extensions><gom:speed>0.383</gom:speed><gom:course>111.287</gom:course></extensions></trkpt>
   <trkpt lat="59.3502288938" lon="34.6770487666"><ele>166.854</ele><time>2026-08-14T00:18:33.999Z</time><hdop>4.687</hdop><vdop>5.312</vdop><extensions><gom:speed>0.899</gom:speed><gom:course>132.667</gom:course></extensions></trkpt>
   <trkpt lat="59.3501567256" lon="34.6771647722"><ele>166.938</ele><time>2026-08-14T00:18:44.999Z</time><hdop>4.687</hdop><vdop>5.375</vdop><extensions><gom:speed>0.957</gom:speed><gom:course>130.997</gom:course></extensions></trkpt>
   <trkpt lat="59.3501073143" lon="34.6773243636"><ele>165.898</ele><time>2026-08-14T00:18:54.999Z</time><hdop>4.687</hdop><vdop>5.375</vdop><extensions><gom:speed>0.688</gom:speed><gom:course>103.349</gom:course></extensions></trkpt>
   <trkpt lat="59.3500618844" lon="34.6774937619"><ele>167.57</ele><time>2026-08-14T00:19:03.999Z</time><hdop>4.687</hdop><vdop>5.875</vdop><extensions><gom:speed>0.995</gom:speed><gom:course>99.949</gom:course></extensions></trkpt>
   <trkpt lat="59.350037074" lon="34.6776716259"><ele>167.468</ele><time>2026-08-14T00:19:15.999Z</time><hdop>4.687</hdop><vdop>5.687</vdop><extensions><gom:speed>0.615</gom:speed><gom:course>112.194</gom:course></extensions></trkpt>
   <trkpt lat="59.350019933" lon="34.6778541837"><ele>167.995</ele><time>2026-08-14T00:19:25.999Z</time><hdop>4.687</hdop><vdop>5.687</vdop><extensions><gom:speed>0.6</gom:speed><gom:course>97.587</gom:course></extensions></trkpt>
   <trkpt lat="59.3499835555" lon="34.6780208998"><ele>168.459</ele><time>2026-08-14T00:19:36.000Z</time><hdop>4.687</hdop><vdop>5.812</vdop><extensions><gom:speed>0.589</gom:speed><gom:course>107.887</gom:course></extensions></trkpt>
   <trkpt lat="59.3499415622" lon="34.6781835925"><ele>168.748</ele><time>2026-08-14T00:19:46.000Z</time><hdop>4.687</hdop><vdop>5.562</vdop><extensions><gom:speed>0.609</gom:speed><gom:course>112.518</gom:course></extensions></trkpt>
   <trkpt lat="59.3499306238" lon="34.678365396"><ele>170.404</ele><time>2026-08-14T00:19:55.999Z</time><hdop>4.687</hdop><vdop>5.375</vdop><extensions><gom:speed>0.654</gom:speed><gom:course>85.425</gom:course></extensions></trkpt>
   <trkpt lat="59.3499318811" lon="34.6785646338"><ele>171.8</ele><time>2026-08-14T00:20:04.999Z</time><hdop>4.687</hdop><vdop>5.875</vdop><extensions><gom:speed>0.679</gom:speed><gom:course>67.55</gom:course></extensions></trkpt>
   <trkpt lat="59.349937036" lon="34.6787477784"><ele>168.854</ele><time>2026-08-14T00:20:15.999Z</time><hdop>4.687</hdop><vdop>5.812</vdop><extensions><gom:speed>0.636</gom:speed><gom:course>96.384</gom:course></extensions></trkpt>
   <trkpt lat="59.3499379161" lon="34.6789493632"><ele>168.534</ele><time>2026-08-14T00:20:24.999Z</time><hdop>4.687</hdop><vdop>5.75</vdop><extensions><gom:speed>0.7</gom:speed><gom:course>77.185</gom:course></extensions></trkpt>
   <trkpt lat="59.3499474295" lon="34.6791402191"><ele>169.879</ele><time>2026-08-14T00:20:34.999Z</time><hdop>4.687</hdop><vdop>5.0</vdop><extensions><gom:speed>1.023</gom:speed><gom:course>77.608</gom:course></extensions></trkpt>
   <trkpt lat="59.3499779397" lon="34.6793115452"><ele>168.715</ele><time>2026-08-14T00:20:46.999Z</time><hdop>4.687</hdop><vdop>5.625</vdop><extensions><gom:speed>0.466</gom:speed><gom:course>58.893</gom:course></extensions></trkpt>
   <trkpt lat="59.3499972599" lon="34.6794956118"><ele>169.813</ele><time>2026-08-14T00:20:54.999Z</time><hdop>4.687</hdop><vdop>4.687</vdop><extensions><gom:speed>1.312</gom:speed><gom:course>77.421</gom:course></extensions></trkpt>
   <trkpt lat="59.3500195977" lon="34.6796717994"><ele>170.186</ele><time>2026-08-14T00:21:06.999Z</time><hdop>4.687</hdop><vdop>4.937</vdop><extensions><gom:speed>0.833</gom:speed><gom:course>77.762</gom:course></extensions></trkpt>
   <trkpt lat="59.3499812924" lon="34.6798384316"><ele>169.266</ele><time>2026-08-14T00:21:17.999Z</time><hdop>4.687</hdop><vdop>5.125</vdop><extensions><gom:speed>0.878</gom:speed><gom:course>127.157</gom:course></extensions></trkpt>
   <trkpt lat="59.3499038436" lon="34.6799478155"><ele>166.792</ele><time>2026-08-14T00:21:26.999Z</time><hdop>4.687</hdop><vdop>5.937</vdop><extensions><gom:speed>1.068</gom:speed><gom:course>130.937</gom:course></extensions></trkpt>
   <trkpt lat="59.3498798714" lon="34.6801364083"><ele>167.738</ele><time>2026-08-14T00:21:37.999Z</time><hdop>4.687</hdop><vdop>5.25</vdop><extensions><gom:speed>0.796</gom:speed><gom:course>89.979</gom:course></extensions></trkpt>
   <trkpt lat="59.3498945397" lon="34.680313937"><ele>167.767</ele><time>2026-08-14T00:21:45.999Z</time><hdop>4.687</hdop><vdop>5.437</vdop><extensions><gom:speed>0.781</gom:speed><gom:course>61.7</gom:course></extensions></trkpt>
   <trkpt lat="59.3499405983" lon="34.6804907113"><ele>167.474</ele><time>2026-08-14T00:21:57.999Z</time><hdop>4.687</hdop><vdop>5.187</vdop><extensions><gom:speed>0.606</gom:speed><gom:course>65.886</gom:course></extensions></trkpt>
   <trkpt lat="59.3499202303" lon="34.6806646358"><ele>166.016</ele><time>2026-08-14T00:22:12.999Z</time><hdop>4.687</hdop><vdop>4.75</vdop><extensions><gom:speed>0.369</gom:speed><gom:course>89.457</gom:course></extensions></trkpt>
   <trkpt lat="59.3498998622" lon="34.6808425836"><ele>168.542</ele><time>2026-08-14T00:22:23.999Z</time><hdop>4.687</hdop><vdop>5.875</vdop><extensions><gom:speed>0.552</gom:speed><gom:course>92.665</gom:course></extensions></trkpt>
   <trkpt lat="59.3498973477" lon="34.6810292486"><ele>168.196</ele><time>2026-08-14T00:22:37.999Z</time><hdop>4.687</hdop><vdop>5.75</vdop><extensions><gom:speed>0.586</gom:speed><gom:course>81.975</gom:course></extensions></trkpt>
   <trkpt lat="59.3498836852" lon="34.6812222"><ele>168.334</ele><time>2026-08-14T00:22:51.999Z</time><hdop>4.687</hdop><vdop>6.375</vdop><extensions><gom:speed>0.912</gom:speed><gom:course>90.061</gom:course></extensions></trkpt>
   <trkpt lat="59.3498729982" lon="34.6814078592"><ele>166.925</ele><time>2026-08-14T00:23:30.999Z</time><hdop>4.687</hdop><vdop>5.937</vdop><extensions><gom:speed>0.597</gom:speed><gom:course>93.901</gom:course></extensions></trkpt>
   <trkpt lat="59.3498398059" lon="34.6815734856"><ele>166.494</ele><time>2026-08-14T00:23:41.999Z</time><hdop>4.687</hdop><vdop>5.625</vdop><extensions><gom:speed>0.58</gom:speed><gom:course>96.642</gom:course></extensions></trkpt>
   <trkpt lat="59.3497954237" lon="34.6817268744"><ele>168.386</ele><time>2026-08-14T00:23:52.999Z</time><hdop>4.687</hdop><vdop>5.75</vdop><extensions><gom:speed>0.611</gom:speed><gom:course>109.469</gom:course></extensions></trkpt>
   <trkpt lat="59.3497631115" lon="34.6819099352"><ele>169.955</ele><time>2026-08-14T00:24:05.999Z</time><hdop>4.687</hdop><vdop>5.625</vdop><extensions><gom:speed>0.721</gom:speed><gom:course>85.084</gom:course></extensions></trkpt>
   <trkpt lat="59.3497409413" lon="34.6820979413"><ele>167.892</ele><time>2026-08-14T00:24:20.999Z</time><hdop>4.687</hdop><vdop>5.375</vdop><extensions><gom:speed>0.6</gom:speed><gom:course>102.372</gom:course></extensions></trkpt>
   <trkpt lat="59.3497179749" lon="34.6822737098"><ele>169.201</ele><time>2026-08-14T00:24:33.999Z</time><hdop>4.687</hdop><vdop>5.625</vdop><extensions><gom:speed>0.666</gom:speed><gom:course>95.555</gom:course></extensions></trkpt>
   <trkpt lat="59.3496884287" lon="34.6824436948"><ele>169.17</ele><time>2026-08-14T00:24:43.999Z</time><hdop>4.687</hdop><vdop>6.562</vdop><extensions><gom:speed>0.858</gom:speed><gom:course>95.73</gom:course></extensions></trkpt>
   <trkpt lat="59.34965817" lon="34.6826143503"><ele>168.48</ele><time>2026-08-14T00:24:53.999Z</time><hdop>4.687</hdop><vdop>5.25</vdop><extensions><gom:speed>0.709</gom:speed><gom:course>108.271</gom:course></extensions></trkpt>
   <trkpt lat="59.3496222117" lon="34.6827939745"><ele>167.902</ele><time>2026-08-14T00:25:03.999Z</time><hdop>4.687</hdop><vdop>6.187</vdop><extensions><gom:speed>0.745</gom:speed><gom:course>115.27</gom:course></extensions></trkpt>
   <trkpt lat="59.3495838645" lon="34.6829702459"><ele>166.685</ele><time>2026-08-14T00:25:14.999Z</time><hdop>4.687</hdop><vdop>5.562</vdop><extensions><gom:speed>0.707</gom:speed><gom:course>109.98</gom:course></extensions></trkpt>
   <trkpt lat="59.3495536896" lon="34.6831565757"><ele>167.473</ele><time>2026-08-14T00:25:24.999Z</time><hdop>4.687</hdop><vdop>6.25</vdop><extensions><gom:speed>0.909</gom:speed><gom:course>100.91</gom:course></extensions></trkpt>
   <trkpt lat="59.3495093913" lon="34.683319436"><ele>166.899</ele><time>2026-08-14T00:25:34.999Z</time><hdop>4.687</hdop><vdop>6.25</vdop><extensions><gom:speed>0.796</gom:speed><gom:course>116.775</gom:course></extensions></trkpt>
   <trkpt lat="59.3494857543" lon="34.683495456"><ele>167.878</ele><time>2026-08-14T00:25:43.998Z</time><hdop>4.687</hdop><vdop>5.437</vdop><extensions><gom:speed>0.775</gom:speed><gom:course>102.092</gom:course></extensions></trkpt>
   <trkpt lat="59.3494634584" lon="34.6836822048"><ele>166.767</ele><time>2026-08-14T00:25:53.999Z</time><hdop>4.687</hdop><vdop>5.5</vdop><extensions><gom:speed>0.573</gom:speed><gom:course>96.9</gom:course></extensions></trkpt>
   <trkpt lat="59.3494322778" lon="34.6838601526"><ele>166.589</ele><time>2026-08-14T00:26:02.999Z</time><hdop>4.687</hdop><vdop>5.937</vdop><extensions><gom:speed>0.414</gom:speed><gom:course>95.412</gom:course></extensions></trkpt>
   <trkpt lat="59.3494152625" lon="34.6840527687"><ele>166.895</ele><time>2026-08-14T00:26:12.999Z</time><hdop>4.687</hdop><vdop>5.937</vdop><extensions><gom:speed>0.905</gom:speed><gom:course>106.991</gom:course></extensions></trkpt>
   <trkpt lat="59.3493991273" lon="34.6842376735"><ele>166.678</ele><time>2026-08-14T00:26:22.999Z</time><hdop>4.687</hdop><vdop>5.812</vdop><extensions><gom:speed>0.864</gom:speed><gom:course>91.544</gom:course></extensions></trkpt>
   <trkpt lat="59.3493765381" lon="34.6844210696"><ele>164.758</ele><time>2026-08-14T00:26:32.999Z</time><hdop>4.687</hdop><vdop>5.687</vdop><extensions><gom:speed>0.723</gom:speed><gom:course>95.011</gom:course></extensions></trkpt>
   <trkpt lat="59.3493658931" lon="34.6846063096"><ele>166.644</ele><time>2026-08-14T00:26:41.999Z</time><hdop>4.687</hdop><vdop>5.5</vdop><extensions><gom:speed>0.945</gom:speed><gom:course>94.159</gom:course></extensions></trkpt>
   <trkpt lat="59.3493598581" lon="34.6847872749"><ele>166.401</ele><time>2026-08-14T00:26:50.999Z</time><hdop>4.687</hdop><vdop>5.687</vdop><extensions><gom:speed>0.924</gom:speed><gom:course>81.816</gom:course></extensions></trkpt>
   <trkpt lat="59.349349716" lon="34.6849718444"><ele>165.322</ele><time>2026-08-14T00:27:00.999Z</time><hdop>4.687</hdop><vdop>5.687</vdop><extensions><gom:speed>0.587</gom:speed><gom:course>93.247</gom:course></extensions></trkpt>
   <trkpt lat="59.3493299347" lon="34.6851515524"><ele>164.81</ele><time>2026-08-14T00:27:09.999Z</time><hdop>4.687</hdop><vdop>5.437</vdop><extensions><gom:speed>0.811</gom:speed><gom:course>100.086</gom:course></extensions></trkpt>
   <trkpt lat="59.3493146377" lon="34.685329584"><ele>165.205</ele><time>2026-08-14T00:27:18.999Z</time><hdop>4.687</hdop><vdop>5.5</vdop><extensions><gom:speed>0.749</gom:speed><gom:course>97.582</gom:course></extensions></trkpt>
   <trkpt lat="59.3493019392" lon="34.6855113037"><ele>166.966</ele><time>2026-08-14T00:27:28.999Z</time><hdop>4.687</hdop><vdop>5.687</vdop><extensions><gom:speed>0.754</gom:speed><gom:course>98.076</gom:course></extensions></trkpt>
   <trkpt lat="59.3492896597" lon="34.68570107"><ele>166.524</ele><time>2026-08-14T00:27:39.998Z</time><hdop>4.687</hdop><vdop>5.687</vdop><extensions><gom:speed>0.863</gom:speed><gom:course>101.246</gom:course></extensions></trkpt>
   <trkpt lat="59.3492807749" lon="34.6858912554"><ele>165.786</ele><time>2026-08-14T00:27:48.998Z</time><hdop>4.687</hdop><vdop>6.062</vdop><extensions><gom:speed>0.939</gom:speed><gom:course>97.241</gom:course></extensions></trkpt>
   <trkpt lat="59.3492532822" lon="34.686072975"><ele>167.748</ele><time>2026-08-14T00:28:03.999Z</time><hdop>4.687</hdop><vdop>5.125</vdop><extensions><gom:speed>0.825</gom:speed><gom:course>100.713</gom:course></extensions></trkpt>
   <trkpt lat="59.3492511029" lon="34.6862718776"><ele>166.978</ele><time>2026-08-14T00:28:13.999Z</time><hdop>4.687</hdop><vdop>6.0</vdop><extensions><gom:speed>0.565</gom:speed><gom:course>92.945</gom:course></extensions></trkpt>
   <trkpt lat="59.3492303996" lon="34.6864573691"><ele>167.455</ele><time>2026-08-14T00:28:23.999Z</time><hdop>4.687</hdop><vdop>5.5</vdop><extensions><gom:speed>0.759</gom:speed><gom:course>75.361</gom:course></extensions></trkpt>
   <trkpt lat="59.3492259991" lon="34.6866493985"><ele>167.325</ele><time>2026-08-14T00:28:33.999Z</time><hdop>4.687</hdop><vdop>5.437</vdop><extensions><gom:speed>0.618</gom:speed><gom:course>78.476</gom:course></extensions></trkpt>
   <trkpt lat="59.3492259991" lon="34.6868281845"><ele>167.995</ele><time>2026-08-14T00:28:41.999Z</time><hdop>4.687</hdop><vdop>5.187</vdop><extensions><gom:speed>0.942</gom:speed><gom:course>88.49</gom:course></extensions></trkpt>
   <trkpt lat="59.3492192517" lon="34.687007222"><ele>168.598</ele><time>2026-08-14T00:28:50.999Z</time><hdop>4.687</hdop><vdop>5.437</vdop><extensions><gom:speed>0.678</gom:speed><gom:course>81.799</gom:course></extensions></trkpt>
   <trkpt lat="59.3492344648" lon="34.6872024365"><ele>167.915</ele><time>2026-08-14T00:28:59.999Z</time><hdop>4.687</hdop><vdop>5.5</vdop><extensions><gom:speed>1.508</gom:speed><gom:course>79.306</gom:course></extensions></trkpt>
   <trkpt lat="59.3492427629" lon="34.6873836532"><ele>167.49</ele><time>2026-08-14T00:29:09.999Z</time><hdop>4.687</hdop><vdop>5.375</vdop><extensions><gom:speed>0.817</gom:speed><gom:course>92.775</gom:course></extensions></trkpt>
   <trkpt lat="59.3492587724" lon="34.6875781134"><ele>165.736</ele><time>2026-08-14T00:29:19.999Z</time><hdop>4.687</hdop><vdop>5.5</vdop><extensions><gom:speed>0.995</gom:speed><gom:course>83.409</gom:course></extensions></trkpt>
   <trkpt lat="59.3492671543" lon="34.687774669"><ele>165.266</ele><time>2026-08-14T00:29:28.999Z</time><hdop>4.687</hdop><vdop>5.5</vdop><extensions><gom:speed>1.284</gom:speed><gom:course>69.225</gom:course></extensions></trkpt>
   <trkpt lat="59.3492671124" lon="34.6879625913"><ele>165.276</ele><time>2026-08-14T00:29:38.998Z</time><hdop>4.687</hdop><vdop>5.625</vdop><extensions><gom:speed>0.938</gom:speed><gom:course>87.342</gom:course></extensions></trkpt>
   <trkpt lat="59.3492643463" lon="34.6881478314"><ele>165.099</ele><time>2026-08-14T00:29:48.998Z</time><hdop>4.687</hdop><vdop>5.5</vdop><extensions><gom:speed>0.937</gom:speed><gom:course>93.962</gom:course></extensions></trkpt>
   <trkpt lat="59.3492542461" lon="34.6883419562"><ele>164.999</ele><time>2026-08-14T00:29:57.998Z</time><hdop>4.687</hdop><vdop>5.25</vdop><extensions><gom:speed>1.712</gom:speed><gom:course>90.083</gom:course></extensions></trkpt>
   <trkpt lat="59.3492707585" lon="34.6885246817"><ele>165.905</ele><time>2026-08-14T00:30:06.999Z</time><hdop>4.687</hdop><vdop>5.125</vdop><extensions><gom:speed>0.974</gom:speed><gom:course>74.818</gom:course></extensions></trkpt>
   <trkpt lat="59.3492797271" lon="34.6887037192"><ele>165.539</ele><time>2026-08-14T00:30:15.999Z</time><hdop>4.687</hdop><vdop>5.312</vdop><extensions><gom:speed>0.769</gom:speed><gom:course>73.246</gom:course></extensions></trkpt>
   <trkpt lat="59.3492902883" lon="34.6888866123"><ele>165.588</ele><time>2026-08-14T00:30:24.999Z</time><hdop>4.687</hdop><vdop>5.812</vdop><extensions><gom:speed>1.065</gom:speed><gom:course>82.827</gom:course></extensions></trkpt>
   <trkpt lat="59.3493292223" lon="34.6890607882"><ele>165.007</ele><time>2026-08-14T00:30:35.999Z</time><hdop>4.687</hdop><vdop>5.625</vdop><extensions><gom:speed>0.783</gom:speed><gom:course>64.699</gom:course></extensions></trkpt>
  </trkseg>
 </trk>
</gpx>